Wetterdaten: Sonntag, 03.07.2016
Datum Zeit Temp. A. Feuchte A. Luftdruck Regen Wind Richtung Richtung Sonnenschein ET UV Solar Taupunkt Windchill Windben Empfang
03.07.2016 00:00 15,0 C 93 % 1017,9 hPa 0,0 l/m 11,1 km/h (2 Bft) SW 236 0 min 0,000 mm 0,0 UV-I 0 W/m 13,9 C 12,6 C 17,7 km/h (3 Bft) 100,00 %
03.07.2016 00:02 15,0 C 93 % 1017,9 hPa 0,0 l/m 8,0 km/h (2 Bft) W-SW 242 0 min 0,000 mm 0,0 UV-I 0 W/m 13,9 C 14,1 C 8,0 km/h (2 Bft) 97,67 %
03.07.2016 00:04 15,0 C 93 % 1017,8 hPa 0,0 l/m 10,1 km/h (2 Bft) W 259 0 min 0,000 mm 0,0 UV-I 0 W/m 13,9 C 13,1 C 19,3 km/h (3 Bft) 100,00 %
03.07.2016 00:06 15,0 C 93 % 1017,9 hPa 0,0 l/m 10,9 km/h (2 Bft) W-SW 248 0 min 0,000 mm 0,0 UV-I 0 W/m 13,9 C 12,7 C 16,1 km/h (3 Bft) 100,00 %
03.07.2016 00:08 15,0 C 94 % 1017,8 hPa 0,0 l/m 9,3 km/h (2 Bft) W 265 0 min 0,000 mm 0,0 UV-I 0 W/m 14,0 C 13,4 C 14,5 km/h (3 Bft) 100,00 %
03.07.2016 00:10 15,0 C 94 % 1017,9 hPa 0,0 l/m 7,6 km/h (2 Bft) W-SW 247 0 min 0,000 mm 0,0 UV-I 0 W/m 14,0 C 14,3 C 12,9 km/h (3 Bft) 97,14 %
03.07.2016 00:12 15,0 C 94 % 1017,9 hPa 0,0 l/m 11,6 km/h (2 Bft) W-SW 253 0 min 0,000 mm 0,0 UV-I 0 W/m 14,0 C 12,4 C 24,1 km/h (4 Bft) 100,00 %
03.07.2016 00:14 15,0 C 94 % 1017,9 hPa 0,0 l/m 13,9 km/h (3 Bft) SW 225 0 min 0,000 mm 0,0 UV-I 0 W/m 14,0 C 11,6 C 22,5 km/h (4 Bft) 98,00 %
03.07.2016 00:16 14,9 C 94 % 1018,0 hPa 0,0 l/m 10,3 km/h (2 Bft) W 261 0 min 0,000 mm 0,0 UV-I 0 W/m 13,9 C 12,9 C 19,3 km/h (3 Bft) 100,00 %
03.07.2016 00:18 14,9 C 94 % 1018,0 hPa 0,0 l/m 9,0 km/h (2 Bft) W 269 0 min 0,000 mm 0,0 UV-I 0 W/m 13,9 C 13,5 C 16,1 km/h (3 Bft) 100,00 %
03.07.2016 00:20 15,0 C 94 % 1018,0 hPa 0,0 l/m 7,8 km/h (2 Bft) W-SW 255 0 min 0,000 mm 0,0 UV-I 0 W/m 14,0 C 14,2 C 11,3 km/h (2 Bft) 100,00 %
03.07.2016 00:22 15,0 C 94 % 1018,0 hPa 0,0 l/m 8,9 km/h (2 Bft) W-NW 284 0 min 0,000 mm 0,0 UV-I 0 W/m 14,0 C 13,6 C 16,1 km/h (3 Bft) 95,83 %
03.07.2016 00:24 14,9 C 94 % 1018,0 hPa 0,0 l/m 10,1 km/h (2 Bft) W-SW 248 0 min 0,000 mm 0,0 UV-I 0 W/m 13,9 C 13,0 C 16,1 km/h (3 Bft) 100,00 %
03.07.2016 00:26 14,9 C 94 % 1018,0 hPa 0,2 l/m 6,8 km/h (2 Bft) W-SW 240 0 min 0,000 mm 0,0 UV-I 0 W/m 13,9 C 14,7 C 11,3 km/h (2 Bft) 100,00 %
03.07.2016 00:28 14,9 C 94 % 1018,0 hPa 0,0 l/m 11,7 km/h (2 Bft) W-SW 244 0 min 0,000 mm 0,0 UV-I 0 W/m 13,9 C 12,3 C 19,3 km/h (3 Bft) 100,00 %
03.07.2016 00:30 14,9 C 94 % 1018,0 hPa 0,0 l/m 10,0 km/h (2 Bft) W-SW 243 0 min 0,000 mm 0,0 UV-I 0 W/m 13,9 C 13,0 C 14,5 km/h (3 Bft) 97,87 %
03.07.2016 00:32 14,9 C 94 % 1018,1 hPa 0,0 l/m 7,6 km/h (2 Bft) SW 232 0 min 0,000 mm 0,0 UV-I 0 W/m 13,9 C 14,2 C 12,9 km/h (3 Bft) 100,00 %
03.07.2016 00:34 14,9 C 94 % 1018,1 hPa 0,0 l/m 7,0 km/h (2 Bft) W-SW 246 0 min 0,000 mm 0,0 UV-I 0 W/m 13,9 C 14,6 C 11,3 km/h (2 Bft) 95,74 %
03.07.2016 00:36 14,9 C 94 % 1018,1 hPa 0,0 l/m 9,0 km/h (2 Bft) W 259 0 min 0,000 mm 0,0 UV-I 0 W/m 13,9 C 13,5 C 14,5 km/h (3 Bft) 97,87 %
03.07.2016 00:38 14,9 C 94 % 1018,2 hPa 0,0 l/m 9,7 km/h (2 Bft) W-NW 285 0 min 0,000 mm 0,0 UV-I 0 W/m 13,9 C 13,1 C 16,1 km/h (3 Bft) 100,00 %
03.07.2016 00:40 14,8 C 94 % 1018,1 hPa 0,0 l/m 6,7 km/h (2 Bft) W 268 0 min 0,000 mm 0,0 UV-I 0 W/m 13,8 C 14,6 C 16,1 km/h (3 Bft) 97,87 %
03.07.2016 00:42 14,8 C 94 % 1018,2 hPa 0,0 l/m 6,3 km/h (2 Bft) W-SW 249 0 min 0,000 mm 0,0 UV-I 0 W/m 13,8 C 14,8 C 12,9 km/h (3 Bft) 97,92 %
03.07.2016 00:44 14,7 C 93 % 1018,3 hPa 0,0 l/m 7,4 km/h (2 Bft) W 280 0 min 0,000 mm 0,0 UV-I 0 W/m 13,6 C 14,1 C 12,9 km/h (3 Bft) 97,87 %
03.07.2016 00:46 14,7 C 93 % 1018,3 hPa 0,0 l/m 7,5 km/h (2 Bft) W-SW 250 0 min 0,000 mm 0,0 UV-I 0 W/m 13,6 C 14,1 C 14,5 km/h (3 Bft) 100,00 %
03.07.2016 00:48 14,7 C 93 % 1018,3 hPa 0,0 l/m 6,6 km/h (2 Bft) W-SW 253 0 min 0,000 mm 0,0 UV-I 0 W/m 13,6 C 14,6 C 12,9 km/h (3 Bft) 100,00 %
03.07.2016 00:50 14,7 C 93 % 1018,3 hPa 0,2 l/m 4,8 km/h (1 Bft) NW 318 0 min 0,000 mm 0,0 UV-I 0 W/m 13,6 C 14,7 C 9,7 km/h (2 Bft) 100,00 %
03.07.2016 00:52 14,6 C 93 % 1018,4 hPa 0,0 l/m 7,4 km/h (2 Bft) W 264 0 min 0,000 mm 0,0 UV-I 0 W/m 13,5 C 14,0 C 12,9 km/h (3 Bft) 97,92 %
03.07.2016 00:54 14,6 C 93 % 1018,3 hPa 0,0 l/m 5,4 km/h (1 Bft) W 279 0 min 0,000 mm 0,0 UV-I 0 W/m 13,5 C 14,6 C 11,3 km/h (2 Bft) 100,00 %
03.07.2016 00:56 14,6 C 93 % 1018,4 hPa 0,0 l/m 9,0 km/h (2 Bft) W-SW 255 0 min 0,000 mm 0,0 UV-I 0 W/m 13,5 C 13,2 C 14,5 km/h (3 Bft) 97,87 %
03.07.2016 00:58 14,5 C 93 % 1018,4 hPa 0,0 l/m 8,2 km/h (2 Bft) W 271 0 min 0,000 mm 0,0 UV-I 0 W/m 13,4 C 13,5 C 16,1 km/h (3 Bft) 100,00 %
03.07.2016 01:00 14,5 C 94 % 1018,4 hPa 0,0 l/m 7,1 km/h (2 Bft) W-SW 254 0 min 0,000 mm 0,0 UV-I 0 W/m 13,5 C 14,1 C 11,3 km/h (2 Bft) 100,00 %
03.07.2016 01:02 14,5 C 94 % 1018,5 hPa 0,2 l/m 3,7 km/h (1 Bft) W 278 0 min 0,000 mm 0,0 UV-I 0 W/m 13,5 C 14,5 C 8,0 km/h (2 Bft) 100,00 %
03.07.2016 01:04 14,4 C 94 % 1018,4 hPa 0,0 l/m 4,5 km/h (1 Bft) W 266 0 min 0,000 mm 0,0 UV-I 0 W/m 13,4 C 14,4 C 6,4 km/h (2 Bft) 97,87 %
03.07.2016 01:06 14,4 C 94 % 1018,5 hPa 0,2 l/m 9,0 km/h (2 Bft) W-SW 256 0 min 0,000 mm 0,0 UV-I 0 W/m 13,4 C 12,9 C 19,3 km/h (3 Bft) 100,00 %
03.07.2016 01:08 14,4 C 94 % 1018,5 hPa 0,0 l/m 10,0 km/h (2 Bft) NW 304 0 min 0,000 mm 0,0 UV-I 0 W/m 13,4 C 12,5 C 14,5 km/h (3 Bft) 100,00 %
03.07.2016 01:10 14,4 C 94 % 1018,6 hPa 0,0 l/m 7,9 km/h (2 Bft) W 270 0 min 0,000 mm 0,0 UV-I 0 W/m 13,4 C 13,5 C 14,5 km/h (3 Bft) 100,00 %
03.07.2016 01:12 14,4 C 94 % 1018,6 hPa 0,2 l/m 6,4 km/h (2 Bft) W 269 0 min 0,000 mm 0,0 UV-I 0 W/m 13,4 C 14,4 C 12,9 km/h (3 Bft) 100,00 %
03.07.2016 01:14 14,4 C 94 % 1018,6 hPa 0,0 l/m 5,9 km/h (2 Bft) W-NW 300 0 min 0,000 mm 0,0 UV-I 0 W/m 13,4 C 14,4 C 11,3 km/h (2 Bft) 97,87 %
03.07.2016 01:16 14,3 C 94 % 1018,7 hPa 0,2 l/m 7,9 km/h (2 Bft) W-SW 255 0 min 0,000 mm 0,0 UV-I 0 W/m 13,3 C 13,4 C 12,9 km/h (3 Bft) 100,00 %
03.07.2016 01:18 14,3 C 94 % 1018,6 hPa 0,0 l/m 5,6 km/h (1 Bft) W 263 0 min 0,000 mm 0,0 UV-I 0 W/m 13,3 C 14,3 C 9,7 km/h (2 Bft) 95,74 %
03.07.2016 01:20 14,3 C 94 % 1018,6 hPa 0,2 l/m 7,3 km/h (2 Bft) W 267 0 min 0,000 mm 0,0 UV-I 0 W/m 13,3 C 13,8 C 12,9 km/h (3 Bft) 97,87 %
03.07.2016 01:22 14,3 C 94 % 1018,6 hPa 0,0 l/m 4,9 km/h (1 Bft) W 279 0 min 0,000 mm 0,0 UV-I 0 W/m 13,3 C 14,3 C 11,3 km/h (2 Bft) 97,87 %
03.07.2016 01:24 14,2 C 94 % 1018,7 hPa 0,2 l/m 6,2 km/h (2 Bft) SW 230 0 min 0,000 mm 0,0 UV-I 0 W/m 13,2 C 14,2 C 11,3 km/h (2 Bft) 98,00 %
03.07.2016 01:26 14,2 C 94 % 1018,7 hPa 0,0 l/m 5,5 km/h (1 Bft) NW 305 0 min 0,000 mm 0,0 UV-I 0 W/m 13,2 C 14,2 C 11,3 km/h (2 Bft) 95,74 %
03.07.2016 01:28 14,2 C 94 % 1018,7 hPa 0,2 l/m 3,5 km/h (1 Bft) W-NW 302 0 min 0,000 mm 0,0 UV-I 0 W/m 13,2 C 14,2 C 4,8 km/h (1 Bft) 97,87 %
03.07.2016 01:30 14,1 C 95 % 1018,7 hPa 0,2 l/m 3,6 km/h (1 Bft) W 262 0 min 0,000 mm 0,0 UV-I 0 W/m 13,3 C 14,1 C 4,8 km/h (1 Bft) 97,87 %
03.07.2016 01:32 14,1 C 95 % 1018,7 hPa 0,0 l/m 4,4 km/h (1 Bft) W-SW 257 0 min 0,000 mm 0,0 UV-I 0 W/m 13,3 C 14,1 C 6,4 km/h (2 Bft) 96,00 %
03.07.2016 01:34 14,1 C 95 % 1018,7 hPa 0,0 l/m 7,0 km/h (2 Bft) W-SW 249 0 min 0,000 mm 0,0 UV-I 0 W/m 13,3 C 13,7 C 16,1 km/h (3 Bft) 97,87 %
03.07.2016 01:36 14,0 C 94 % 1018,7 hPa 0,2 l/m 6,6 km/h (2 Bft) W 267 0 min 0,000 mm 0,0 UV-I 0 W/m 13,0 C 13,9 C 19,3 km/h (3 Bft) 95,74 %
03.07.2016 01:38 13,9 C 94 % 1018,8 hPa 0,0 l/m 6,6 km/h (2 Bft) W-NW 296 0 min 0,000 mm 0,0 UV-I 0 W/m 12,9 C 13,8 C 11,3 km/h (2 Bft) 97,14 %
03.07.2016 01:40 13,9 C 94 % 1018,7 hPa 0,2 l/m 12,0 km/h (2 Bft) W-SW 253 0 min 0,000 mm 0,0 UV-I 0 W/m 12,9 C 11,0 C 17,7 km/h (3 Bft) 98,00 %
03.07.2016 01:42 13,8 C 94 % 1018,7 hPa 0,0 l/m 8,7 km/h (2 Bft) W 273 0 min 0,000 mm 0,0 UV-I 0 W/m 12,9 C 12,5 C 12,9 km/h (3 Bft) 98,11 %
03.07.2016 01:44 13,8 C 94 % 1018,8 hPa 0,2 l/m 8,5 km/h (2 Bft) W-SW 257 0 min 0,000 mm 0,0 UV-I 0 W/m 12,9 C 12,6 C 14,5 km/h (3 Bft) 97,87 %
03.07.2016 01:46 13,8 C 94 % 1018,9 hPa 0,2 l/m 10,0 km/h (2 Bft) W 260 0 min 0,000 mm 0,0 UV-I 0 W/m 12,9 C 11,8 C 14,5 km/h (3 Bft) 91,49 %
03.07.2016 01:48 13,8 C 94 % 1018,9 hPa 0,0 l/m 11,2 km/h (2 Bft) W-SW 243 0 min 0,000 mm 0,0 UV-I 0 W/m 12,9 C 11,2 C 16,1 km/h (3 Bft) 94,00 %
03.07.2016 01:50 13,7 C 94 % 1018,9 hPa 0,0 l/m 8,7 km/h (2 Bft) W 262 0 min 0,000 mm 0,0 UV-I 0 W/m 12,8 C 12,3 C 11,3 km/h (2 Bft) 100,00 %
03.07.2016 01:52 13,7 C 94 % 1018,9 hPa 0,2 l/m 10,0 km/h (2 Bft) S 186 0 min 0,000 mm 0,0 UV-I 0 W/m 12,8 C 11,7 C 14,5 km/h (3 Bft) 100,00 %
03.07.2016 01:54 13,7 C 94 % 1018,9 hPa 0,0 l/m 9,1 km/h (2 Bft) W-NW 286 0 min 0,000 mm 0,0 UV-I 0 W/m 12,8 C 12,1 C 16,1 km/h (3 Bft) 100,00 %
03.07.2016 01:56 13,8 C 94 % 1018,8 hPa 0,0 l/m 11,6 km/h (2 Bft) SW 233 0 min 0,000 mm 0,0 UV-I 0 W/m 12,9 C 11,1 C 16,1 km/h (3 Bft) 100,00 %
03.07.2016 01:58 13,8 C 94 % 1018,8 hPa 0,2 l/m 12,4 km/h (3 Bft) SW 236 0 min 0,000 mm 0,0 UV-I 0 W/m 12,9 C 10,7 C 19,3 km/h (3 Bft) 97,87 %
03.07.2016 02:00 13,7 C 94 % 1018,8 hPa 0,0 l/m 11,9 km/h (2 Bft) SW 219 0 min 0,000 mm 0,0 UV-I 0 W/m 12,8 C 10,8 C 19,3 km/h (3 Bft) 100,00 %
03.07.2016 02:02 13,7 C 93 % 1018,8 hPa 0,0 l/m 11,5 km/h (2 Bft) SW 216 0 min 0,000 mm 0,0 UV-I 0 W/m 12,6 C 11,0 C 19,3 km/h (3 Bft) 100,00 %
03.07.2016 02:04 13,7 C 94 % 1018,8 hPa 0,0 l/m 11,2 km/h (2 Bft) SW 234 0 min 0,000 mm 0,0 UV-I 0 W/m 12,8 C 11,1 C 17,7 km/h (3 Bft) 98,00 %
03.07.2016 02:06 13,6 C 93 % 1018,8 hPa 0,0 l/m 8,1 km/h (2 Bft) W-SW 244 0 min 0,000 mm 0,0 UV-I 0 W/m 12,5 C 12,6 C 14,5 km/h (3 Bft) 100,00 %
03.07.2016 02:08 13,6 C 93 % 1018,8 hPa 0,0 l/m 11,2 km/h (2 Bft) W 262 0 min 0,000 mm 0,0 UV-I 0 W/m 12,5 C 11,0 C 16,1 km/h (3 Bft) 100,00 %
03.07.2016 02:10 13,6 C 93 % 1018,8 hPa 0,0 l/m 14,1 km/h (3 Bft) W-SW 242 0 min 0,000 mm 0,0 UV-I 0 W/m 12,5 C 9,8 C 22,5 km/h (4 Bft) 100,00 %
03.07.2016 02:12 13,5 C 93 % 1018,8 hPa 0,0 l/m 10,1 km/h (2 Bft) SW 228 0 min 0,000 mm 0,0 UV-I 0 W/m 12,4 C 11,4 C 16,1 km/h (3 Bft) 97,87 %
03.07.2016 02:14 13,5 C 93 % 1018,8 hPa 0,0 l/m 10,8 km/h (2 Bft) SW 217 0 min 0,000 mm 0,0 UV-I 0 W/m 12,4 C 11,1 C 19,3 km/h (3 Bft) 100,00 %
03.07.2016 02:16 13,4 C 93 % 1018,9 hPa 0,0 l/m 9,4 km/h (2 Bft) SW 234 0 min 0,000 mm 0,0 UV-I 0 W/m 12,3 C 11,7 C 14,5 km/h (3 Bft) 98,00 %
03.07.2016 02:18 13,4 C 93 % 1018,9 hPa 0,2 l/m 9,8 km/h (2 Bft) W-SW 238 0 min 0,000 mm 0,0 UV-I 0 W/m 12,3 C 11,5 C 16,1 km/h (3 Bft) 100,00 %
03.07.2016 02:20 13,4 C 94 % 1019,0 hPa 0,0 l/m 10,2 km/h (2 Bft) SW 216 0 min 0,000 mm 0,0 UV-I 0 W/m 12,5 C 11,3 C 17,7 km/h (3 Bft) 97,37 %
03.07.2016 02:22 13,4 C 94 % 1019,0 hPa 0,0 l/m 14,2 km/h (3 Bft) SW 223 0 min 0,000 mm 0,0 UV-I 0 W/m 12,5 C 9,5 C 22,5 km/h (4 Bft) 100,00 %
03.07.2016 02:24 13,4 C 94 % 1019,0 hPa 0,2 l/m 11,9 km/h (2 Bft) W-SW 238 0 min 0,000 mm 0,0 UV-I 0 W/m 12,5 C 10,5 C 17,7 km/h (3 Bft) 100,00 %
03.07.2016 02:26 13,4 C 94 % 1019,0 hPa 0,0 l/m 7,8 km/h (2 Bft) SW 223 0 min 0,000 mm 0,0 UV-I 0 W/m 12,5 C 12,5 C 16,1 km/h (3 Bft) 100,00 %
03.07.2016 02:28 13,4 C 94 % 1019,0 hPa 0,0 l/m 9,6 km/h (2 Bft) W-SW 242 0 min 0,000 mm 0,0 UV-I 0 W/m 12,5 C 11,6 C 14,5 km/h (3 Bft) 100,00 %
03.07.2016 02:30 13,3 C 94 % 1019,0 hPa 0,2 l/m 13,0 km/h (3 Bft) SW 236 0 min 0,000 mm 0,0 UV-I 0 W/m 12,4 C 9,9 C 19,3 km/h (3 Bft) 100,00 %
03.07.2016 02:32 13,3 C 94 % 1019,0 hPa 0,2 l/m 11,4 km/h (2 Bft) SW 235 0 min 0,000 mm 0,0 UV-I 0 W/m 12,4 C 10,6 C 19,3 km/h (3 Bft) 100,00 %
03.07.2016 02:34 13,3 C 94 % 1019,0 hPa 0,2 l/m 13,3 km/h (3 Bft) SW 229 0 min 0,000 mm 0,0 UV-I 0 W/m 12,4 C 9,8 C 19,3 km/h (3 Bft) 97,87 %
03.07.2016 02:36 13,3 C 94 % 1019,1 hPa 0,0 l/m 14,1 km/h (3 Bft) SW 227 0 min 0,000 mm 0,0 UV-I 0 W/m 12,4 C 9,5 C 22,5 km/h (4 Bft) 97,87 %
03.07.2016 02:38 13,3 C 94 % 1019,1 hPa 0,0 l/m 14,4 km/h (3 Bft) W-SW 240 0 min 0,000 mm 0,0 UV-I 0 W/m 12,4 C 9,4 C 20,9 km/h (4 Bft) 100,00 %
03.07.2016 02:40 13,3 C 94 % 1019,1 hPa 0,0 l/m 12,5 km/h (3 Bft) SW 230 0 min 0,000 mm 0,0 UV-I 0 W/m 12,4 C 10,1 C 19,3 km/h (3 Bft) 100,00 %
03.07.2016 02:42 13,3 C 94 % 1019,1 hPa 0,2 l/m 12,5 km/h (3 Bft) SW 232 0 min 0,000 mm 0,0 UV-I 0 W/m 12,4 C 10,1 C 19,3 km/h (3 Bft) 97,87 %
03.07.2016 02:44 13,2 C 94 % 1019,1 hPa 0,0 l/m 13,4 km/h (3 Bft) W-SW 238 0 min 0,000 mm 0,0 UV-I 0 W/m 12,3 C 9,6 C 20,9 km/h (4 Bft) 100,00 %
03.07.2016 02:46 13,2 C 94 % 1019,0 hPa 0,0 l/m 15,0 km/h (3 Bft) W-SW 242 0 min 0,000 mm 0,0 UV-I 0 W/m 12,3 C 9,0 C 20,9 km/h (4 Bft) 97,87 %
03.07.2016 02:48 13,2 C 94 % 1019,1 hPa 0,2 l/m 9,3 km/h (2 Bft) W 266 0 min 0,000 mm 0,0 UV-I 0 W/m 12,3 C 11,5 C 16,1 km/h (3 Bft) 100,00 %
03.07.2016 02:50 13,2 C 94 % 1019,0 hPa 0,2 l/m 9,9 km/h (2 Bft) W-SW 240 0 min 0,000 mm 0,0 UV-I 0 W/m 12,3 C 11,2 C 17,7 km/h (3 Bft) 100,00 %
03.07.2016 02:52 13,2 C 94 % 1019,1 hPa 0,0 l/m 10,8 km/h (2 Bft) SW 232 0 min 0,000 mm 0,0 UV-I 0 W/m 12,3 C 10,7 C 16,1 km/h (3 Bft) 100,00 %
03.07.2016 02:54 13,2 C 94 % 1019,0 hPa 0,0 l/m 13,2 km/h (3 Bft) W-SW 250 0 min 0,000 mm 0,0 UV-I 0 W/m 12,3 C 9,7 C 24,1 km/h (4 Bft) 97,87 %
03.07.2016 02:56 13,2 C 94 % 1019,0 hPa 0,0 l/m 12,0 km/h (2 Bft) W-SW 239 0 min 0,000 mm 0,0 UV-I 0 W/m 12,3 C 10,2 C 19,3 km/h (3 Bft) 100,00 %
03.07.2016 02:58 13,2 C 94 % 1019,0 hPa 0,2 l/m 9,9 km/h (2 Bft) SW 221 0 min 0,000 mm 0,0 UV-I 0 W/m 12,3 C 11,2 C 14,5 km/h (3 Bft) 100,00 %
03.07.2016 03:00 13,1 C 94 % 1019,0 hPa 0,0 l/m 12,1 km/h (2 Bft) SW 234 0 min 0,000 mm 0,0 UV-I 0 W/m 12,2 C 10,0 C 19,3 km/h (3 Bft) 100,00 %
03.07.2016 03:02 13,1 C 94 % 1019,0 hPa 0,0 l/m 10,2 km/h (2 Bft) SW 224 0 min 0,000 mm 0,0 UV-I 0 W/m 12,2 C 10,9 C 16,1 km/h (3 Bft) 96,88 %
03.07.2016 03:04 13,1 C 94 % 1019,0 hPa 0,0 l/m 11,8 km/h (2 Bft) W-SW 246 0 min 0,000 mm 0,0 UV-I 0 W/m 12,2 C 10,2 C 17,7 km/h (3 Bft) 100,00 %
03.07.2016 03:06 13,1 C 94 % 1019,0 hPa 0,0 l/m 11,2 km/h (2 Bft) S-SW 213 0 min 0,000 mm 0,0 UV-I 0 W/m 12,2 C 10,4 C 19,3 km/h (3 Bft) 97,87 %
03.07.2016 03:08 13,1 C 94 % 1019,0 hPa 0,0 l/m 10,0 km/h (2 Bft) S 183 0 min 0,000 mm 0,0 UV-I 0 W/m 12,2 C 11,0 C 17,7 km/h (3 Bft) 100,00 %
03.07.2016 03:10 13,1 C 94 % 1019,0 hPa 0,0 l/m 10,6 km/h (2 Bft) S-SW 212 0 min 0,000 mm 0,0 UV-I 0 W/m 12,2 C 10,7 C 17,7 km/h (3 Bft) 100,00 %
03.07.2016 03:12 13,1 C 94 % 1019,0 hPa 0,0 l/m 11,3 km/h (2 Bft) W-SW 248 0 min 0,000 mm 0,0 UV-I 0 W/m 12,2 C 10,4 C 19,3 km/h (3 Bft) 100,00 %
03.07.2016 03:14 13,1 C 94 % 1019,0 hPa 0,0 l/m 11,7 km/h (2 Bft) SW 218 0 min 0,000 mm 0,0 UV-I 0 W/m 12,2 C 10,2 C 20,9 km/h (4 Bft) 97,87 %
03.07.2016 03:16 13,1 C 94 % 1019,1 hPa 0,0 l/m 11,7 km/h (2 Bft) S-SW 194 0 min 0,000 mm 0,0 UV-I 0 W/m 12,2 C 10,2 C 17,7 km/h (3 Bft) 97,87 %
03.07.2016 03:18 13,1 C 94 % 1019,0 hPa 0,0 l/m 11,3 km/h (2 Bft) SW 227 0 min 0,000 mm 0,0 UV-I 0 W/m 12,2 C 10,4 C 19,3 km/h (3 Bft) 94,29 %
03.07.2016 03:20 13,1 C 94 % 1019,1 hPa 0,0 l/m 10,0 km/h (2 Bft) S-SW 192 0 min 0,000 mm 0,0 UV-I 0 W/m 12,2 C 11,0 C 16,1 km/h (3 Bft) 96,23 %
03.07.2016 03:22 13,0 C 94 % 1019,1 hPa 0,0 l/m 10,5 km/h (2 Bft) SW 214 0 min 0,000 mm 0,0 UV-I 0 W/m 12,1 C 10,7 C 14,5 km/h (3 Bft) 96,23 %
03.07.2016 03:24 13,0 C 94 % 1019,2 hPa 0,2 l/m 6,8 km/h (2 Bft) S-SW 192 0 min 0,000 mm 0,0 UV-I 0 W/m 12,1 C 12,8 C 9,7 km/h (2 Bft) 95,74 %
03.07.2016 03:26 13,0 C 94 % 1019,2 hPa 0,0 l/m 12,3 km/h (3 Bft) S-SW 209 0 min 0,000 mm 0,0 UV-I 0 W/m 12,1 C 9,8 C 20,9 km/h (4 Bft) 97,87 %
03.07.2016 03:28 13,0 C 94 % 1019,3 hPa 0,0 l/m 11,5 km/h (2 Bft) S-SW 193 0 min 0,000 mm 0,0 UV-I 0 W/m 12,1 C 10,2 C 19,3 km/h (3 Bft) 94,74 %
03.07.2016 03:30 13,0 C 94 % 1019,2 hPa 0,0 l/m 10,9 km/h (2 Bft) S-SW 212 0 min 0,000 mm 0,0 UV-I 0 W/m 12,1 C 10,5 C 20,9 km/h (4 Bft) 97,87 %
03.07.2016 03:32 13,0 C 94 % 1019,3 hPa 0,0 l/m 12,2 km/h (2 Bft) SO 144 0 min 0,000 mm 0,0 UV-I 0 W/m 12,1 C 9,9 C 20,9 km/h (4 Bft) 97,87 %
03.07.2016 03:34 13,0 C 93 % 1019,2 hPa 0,0 l/m 12,4 km/h (3 Bft) SW 222 0 min 0,000 mm 0,0 UV-I 0 W/m 11,9 C 9,8 C 20,9 km/h (4 Bft) 95,74 %
03.07.2016 03:36 12,9 C 94 % 1019,3 hPa 0,0 l/m 10,2 km/h (2 Bft) SO 144 0 min 0,000 mm 0,0 UV-I 0 W/m 12,0 C 10,7 C 14,5 km/h (3 Bft) 95,74 %
03.07.2016 03:38 12,9 C 93 % 1019,2 hPa 0,0 l/m 11,2 km/h (2 Bft) SW 230 0 min 0,000 mm 0,0 UV-I 0 W/m 11,8 C 10,2 C 16,1 km/h (3 Bft) 97,87 %
03.07.2016 03:40 12,9 C 94 % 1019,4 hPa 0,0 l/m 9,8 km/h (2 Bft) S-SW 207 0 min 0,000 mm 0,0 UV-I 0 W/m 12,0 C 10,9 C 16,1 km/h (3 Bft) 95,74 %
03.07.2016 03:42 12,9 C 94 % 1019,4 hPa 0,0 l/m 10,2 km/h (2 Bft) S-SW 208 0 min 0,000 mm 0,0 UV-I 0 W/m 12,0 C 10,7 C 16,1 km/h (3 Bft) 97,87 %
03.07.2016 03:44 12,9 C 94 % 1019,4 hPa 0,0 l/m 15,8 km/h (3 Bft) W-SW 241 0 min 0,000 mm 0,0 UV-I 0 W/m 12,0 C 8,4 C 22,5 km/h (4 Bft) 97,87 %
03.07.2016 03:46 12,9 C 94 % 1019,3 hPa 0,0 l/m 12,4 km/h (3 Bft) SW 236 0 min 0,000 mm 0,0 UV-I 0 W/m 12,0 C 9,7 C 17,7 km/h (3 Bft) 97,87 %
03.07.2016 03:48 13,0 C 94 % 1019,4 hPa 0,0 l/m 9,9 km/h (2 Bft) SW 236 0 min 0,000 mm 0,0 UV-I 0 W/m 12,1 C 11,0 C 16,1 km/h (3 Bft) 95,83 %
03.07.2016 03:50 13,0 C 94 % 1019,4 hPa 0,0 l/m 12,3 km/h (3 Bft) SW 221 0 min 0,000 mm 0,0 UV-I 0 W/m 12,1 C 9,8 C 17,7 km/h (3 Bft) 96,00 %
03.07.2016 03:52 13,0 C 94 % 1019,4 hPa 0,0 l/m 12,7 km/h (3 Bft) SW 219 0 min 0,000 mm 0,0 UV-I 0 W/m 12,1 C 9,7 C 22,5 km/h (4 Bft) 98,00 %
03.07.2016 03:54 12,9 C 94 % 1019,4 hPa 0,0 l/m 12,8 km/h (3 Bft) SW 226 0 min 0,000 mm 0,0 UV-I 0 W/m 12,0 C 9,5 C 20,9 km/h (4 Bft) 97,87 %
03.07.2016 03:56 12,9 C 94 % 1019,4 hPa 0,0 l/m 10,4 km/h (2 Bft) W-SW 240 0 min 0,000 mm 0,0 UV-I 0 W/m 12,0 C 10,6 C 16,1 km/h (3 Bft) 100,00 %
03.07.2016 03:58 12,9 C 94 % 1019,5 hPa 0,0 l/m 10,1 km/h (2 Bft) SW 227 0 min 0,000 mm 0,0 UV-I 0 W/m 12,0 C 10,7 C 16,1 km/h (3 Bft) 97,87 %
03.07.2016 04:00 12,9 C 94 % 1019,5 hPa 0,2 l/m 8,5 km/h (2 Bft) SW 230 0 min 0,000 mm 0,0 UV-I 0 W/m 12,0 C 11,6 C 14,5 km/h (3 Bft) 100,00 %
03.07.2016 04:02 12,9 C 94 % 1019,4 hPa 0,0 l/m 9,5 km/h (2 Bft) SW 219 0 min 0,000 mm 0,0 UV-I 0 W/m 12,0 C 11,1 C 16,1 km/h (3 Bft) 100,00 %
03.07.2016 04:04 12,9 C 94 % 1019,4 hPa 0,0 l/m 9,8 km/h (2 Bft) W-SW 245 0 min 0,000 mm 0,0 UV-I 0 W/m 12,0 C 10,9 C 14,5 km/h (3 Bft) 96,23 %
03.07.2016 04:06 12,9 C 94 % 1019,5 hPa 0,0 l/m 10,1 km/h (2 Bft) SW 227 0 min 0,000 mm 0,0 UV-I 0 W/m 12,0 C 10,7 C 16,1 km/h (3 Bft) 100,00 %
03.07.2016 04:08 12,9 C 94 % 1019,4 hPa 0,0 l/m 8,1 km/h (2 Bft) S-SW 200 0 min 0,000 mm 0,0 UV-I 0 W/m 12,0 C 11,8 C 12,9 km/h (3 Bft) 97,87 %
03.07.2016 04:10 12,9 C 94 % 1019,4 hPa 0,0 l/m 10,0 km/h (2 Bft) S 186 0 min 0,000 mm 0,0 UV-I 0 W/m 12,0 C 10,8 C 17,7 km/h (3 Bft) 100,00 %
03.07.2016 04:12 12,9 C 94 % 1019,4 hPa 0,0 l/m 11,3 km/h (2 Bft) SW 229 0 min 0,000 mm 0,0 UV-I 0 W/m 12,0 C 10,2 C 19,3 km/h (3 Bft) 97,87 %
03.07.2016 04:14 12,9 C 94 % 1019,4 hPa 0,0 l/m 9,5 km/h (2 Bft) W 269 0 min 0,000 mm 0,0 UV-I 0 W/m 12,0 C 11,1 C 17,7 km/h (3 Bft) 100,00 %
03.07.2016 04:16 12,9 C 94 % 1019,4 hPa 0,0 l/m 9,9 km/h (2 Bft) S-SW 202 0 min 0,000 mm 0,0 UV-I 0 W/m 12,0 C 10,8 C 16,1 km/h (3 Bft) 97,56 %
03.07.2016 04:18 12,8 C 94 % 1019,4 hPa 0,2 l/m 12,2 km/h (2 Bft) SW 232 0 min 0,000 mm 0,0 UV-I 0 W/m 11,9 C 9,7 C 17,7 km/h (3 Bft) 97,87 %
03.07.2016 04:20 12,8 C 94 % 1019,4 hPa 0,0 l/m 11,5 km/h (2 Bft) SW 221 0 min 0,000 mm 0,0 UV-I 0 W/m 11,9 C 10,0 C 17,7 km/h (3 Bft) 100,00 %
03.07.2016 04:22 12,8 C 94 % 1019,4 hPa 0,0 l/m 10,3 km/h (2 Bft) W-SW 237 0 min 0,000 mm 0,0 UV-I 0 W/m 11,9 C 10,5 C 16,1 km/h (3 Bft) 100,00 %
03.07.2016 04:24 12,8 C 93 % 1019,5 hPa 0,0 l/m 10,9 km/h (2 Bft) S 188 0 min 0,000 mm 0,0 UV-I 0 W/m 11,7 C 10,2 C 14,5 km/h (3 Bft) 100,00 %
03.07.2016 04:26 12,8 C 93 % 1019,5 hPa 0,0 l/m 11,1 km/h (2 Bft) SW 229 0 min 0,000 mm 0,0 UV-I 0 W/m 11,7 C 10,1 C 16,1 km/h (3 Bft) 100,00 %
03.07.2016 04:28 12,8 C 93 % 1019,6 hPa 0,0 l/m 12,0 km/h (2 Bft) SW 225 0 min 0,000 mm 0,0 UV-I 0 W/m 11,7 C 9,7 C 19,3 km/h (3 Bft) 100,00 %
03.07.2016 04:30 12,8 C 94 % 1019,6 hPa 0,0 l/m 10,6 km/h (2 Bft) SW 223 0 min 0,000 mm 0,0 UV-I 0 W/m 11,9 C 10,4 C 19,3 km/h (3 Bft) 100,00 %
03.07.2016 04:32 12,8 C 94 % 1019,6 hPa 0,0 l/m 9,0 km/h (2 Bft) SW 230 0 min 0,000 mm 0,0 UV-I 0 W/m 11,9 C 11,2 C 14,5 km/h (3 Bft) 100,00 %
03.07.2016 04:34 12,8 C 94 % 1019,6 hPa 0,0 l/m 10,1 km/h (2 Bft) SW 230 0 min 0,000 mm 0,0 UV-I 0 W/m 11,9 C 10,6 C 16,1 km/h (3 Bft) 100,00 %
03.07.2016 04:36 12,8 C 94 % 1019,6 hPa 0,0 l/m 10,1 km/h (2 Bft) W 259 0 min 0,000 mm 0,0 UV-I 0 W/m 11,9 C 10,6 C 14,5 km/h (3 Bft) 97,87 %
03.07.2016 04:38 12,8 C 94 % 1019,6 hPa 0,0 l/m 10,8 km/h (2 Bft) SW 229 0 min 0,000 mm 0,0 UV-I 0 W/m 11,9 C 10,3 C 17,7 km/h (3 Bft) 100,00 %
03.07.2016 04:40 12,8 C 94 % 1019,6 hPa 0,0 l/m 10,5 km/h (2 Bft) S-SW 208 0 min 0,000 mm 0,0 UV-I 0 W/m 11,9 C 10,4 C 16,1 km/h (3 Bft) 100,00 %
03.07.2016 04:42 12,7 C 94 % 1019,6 hPa 0,0 l/m 8,0 km/h (2 Bft) SW 235 0 min 0,000 mm 0,0 UV-I 0 W/m 11,8 C 11,7 C 14,5 km/h (3 Bft) 100,00 %
03.07.2016 04:44 12,7 C 94 % 1019,5 hPa 0,0 l/m 10,2 km/h (2 Bft) SW 236 0 min 0,000 mm 0,0 UV-I 0 W/m 11,8 C 10,5 C 16,1 km/h (3 Bft) 100,00 %
03.07.2016 04:46 12,7 C 94 % 1019,5 hPa 0,2 l/m 10,3 km/h (2 Bft) S-SW 200 0 min 0,000 mm 0,0 UV-I 0 W/m 11,8 C 10,4 C 14,5 km/h (3 Bft) 100,00 %
03.07.2016 04:48 12,7 C 94 % 1019,4 hPa 0,0 l/m 10,2 km/h (2 Bft) SW 215 0 min 0,000 mm 0,0 UV-I 0 W/m 11,8 C 10,5 C 17,7 km/h (3 Bft) 97,87 %
03.07.2016 04:50 12,7 C 94 % 1019,5 hPa 0,0 l/m 10,1 km/h (2 Bft) W-SW 244 0 min 0,000 mm 0,0 UV-I 0 W/m 11,8 C 10,5 C 17,7 km/h (3 Bft) 97,87 %
03.07.2016 04:52 12,7 C 94 % 1019,4 hPa 0,0 l/m 9,6 km/h (2 Bft) W-SW 241 0 min 0,000 mm 0,0 UV-I 0 W/m 11,8 C 10,8 C 14,5 km/h (3 Bft) 97,87 %
03.07.2016 04:54 12,7 C 94 % 1019,4 hPa 0,0 l/m 8,5 km/h (2 Bft) SW 220 0 min 0,000 mm 0,0 UV-I 0 W/m 11,8 C 11,4 C 12,9 km/h (3 Bft) 100,00 %
03.07.2016 04:56 12,7 C 94 % 1019,4 hPa 0,0 l/m 8,8 km/h (2 Bft) S-SW 196 0 min 0,000 mm 0,0 UV-I 0 W/m 11,8 C 11,2 C 14,5 km/h (3 Bft) 100,00 %
03.07.2016 04:58 12,7 C 94 % 1019,4 hPa 0,0 l/m 9,7 km/h (2 Bft) S 179 0 min 0,000 mm 0,0 UV-I 0 W/m 11,8 C 10,7 C 17,7 km/h (3 Bft) 100,00 %
03.07.2016 05:00 12,7 C 94 % 1019,4 hPa 0,0 l/m 11,2 km/h (2 Bft) S-SW 198 0 min 0,000 mm 0,0 UV-I 0 W/m 11,8 C 10,0 C 19,3 km/h (3 Bft) 100,00 %
03.07.2016 05:02 12,7 C 94 % 1019,5 hPa 0,0 l/m 11,2 km/h (2 Bft) S-SW 202 0 min 0,000 mm 0,0 UV-I 0 W/m 11,8 C 10,0 C 17,7 km/h (3 Bft) 97,22 %
03.07.2016 05:04 12,7 C 94 % 1019,5 hPa 0,0 l/m 9,7 km/h (2 Bft) SW 234 0 min 0,000 mm 0,0 UV-I 0 W/m 11,8 C 10,7 C 16,1 km/h (3 Bft) 100,00 %
03.07.2016 05:06 12,7 C 94 % 1019,5 hPa 0,0 l/m 9,3 km/h (2 Bft) SW 218 0 min 0,000 mm 0,0 UV-I 0 W/m 11,8 C 10,9 C 14,5 km/h (3 Bft) 100,00 %
03.07.2016 05:08 12,7 C 94 % 1019,4 hPa 0,0 l/m 9,8 km/h (2 Bft) S-SW 212 0 min 0,000 mm 0,0 UV-I 0 W/m 11,8 C 10,7 C 17,7 km/h (3 Bft) 97,87 %
03.07.2016 05:10 12,7 C 94 % 1019,5 hPa 0,0 l/m 8,3 km/h (2 Bft) SW 221 0 min 0,000 mm 0,0 UV-I 0 W/m 11,8 C 11,5 C 17,7 km/h (3 Bft) 100,00 %
03.07.2016 05:12 12,7 C 94 % 1019,4 hPa 0,0 l/m 12,2 km/h (2 Bft) SW 236 0 min 0,000 mm 0,0 UV-I 0 W/m 11,8 C 9,5 C 20,9 km/h (4 Bft) 95,74 %
03.07.2016 05:14 12,7 C 94 % 1019,4 hPa 0,0 l/m 8,9 km/h (2 Bft) W-SW 237 0 min 0,000 mm 0,0 UV-I 0 W/m 11,8 C 11,2 C 16,1 km/h (3 Bft) 100,00 %
03.07.2016 05:16 12,7 C 94 % 1019,4 hPa 0,0 l/m 10,4 km/h (2 Bft) SW 226 0 min 0,000 mm 0,0 UV-I 0 W/m 11,8 C 10,4 C 17,7 km/h (3 Bft) 95,74 %
03.07.2016 05:18 12,7 C 94 % 1019,4 hPa 0,0 l/m 11,1 km/h (2 Bft) SW 234 0 min 0,000 mm 0,0 UV-I 0 W/m 11,8 C 10,0 C 16,1 km/h (3 Bft) 97,87 %
03.07.2016 05:20 12,7 C 94 % 1019,5 hPa 0,0 l/m 12,1 km/h (2 Bft) S-SW 204 0 min 0,000 mm 0,0 UV-I 0 W/m 11,8 C 9,6 C 20,9 km/h (4 Bft) 98,00 %
03.07.2016 05:22 12,7 C 94 % 1019,6 hPa 0,0 l/m 9,6 km/h (2 Bft) W-SW 250 0 min 0,000 mm 0,0 UV-I 0 W/m 11,8 C 10,8 C 14,5 km/h (3 Bft) 97,87 %
03.07.2016 05:24 12,7 C 94 % 1019,6 hPa 0,0 l/m 10,8 km/h (2 Bft) S-SW 209 0 min 0,000 mm 0,0 UV-I 0 W/m 11,8 C 10,2 C 16,1 km/h (3 Bft) 97,37 %
03.07.2016 05:26 12,7 C 94 % 1019,6 hPa 0,0 l/m 10,3 km/h (2 Bft) S-SW 211 0 min 0,000 mm 0,0 UV-I 0 W/m 11,8 C 10,4 C 16,1 km/h (3 Bft) 97,87 %
03.07.2016 05:28 12,7 C 94 % 1019,6 hPa 0,0 l/m 9,4 km/h (2 Bft) W-SW 246 0 min 0,000 mm 0,0 UV-I 2 W/m 11,8 C 10,9 C 16,1 km/h (3 Bft) 95,74 %
03.07.2016 05:30 12,7 C 94 % 1019,5 hPa 0,0 l/m 7,8 km/h (2 Bft) S-SW 199 0 min 0,000 mm 0,0 UV-I 5 W/m 11,8 C 11,8 C 14,5 km/h (3 Bft) 98,00 %
03.07.2016 05:32 12,8 C 94 % 1019,6 hPa 0,0 l/m 9,4 km/h (2 Bft) S-SW 201 0 min 0,000 mm 0,0 UV-I 5 W/m 11,9 C 11,0 C 14,5 km/h (3 Bft) 95,74 %
03.07.2016 05:34 12,8 C 93 % 1019,5 hPa 0,0 l/m 6,8 km/h (2 Bft) SW 235 0 min 0,000 mm 0,0 UV-I 5 W/m 11,7 C 12,6 C 11,3 km/h (2 Bft) 96,00 %
03.07.2016 05:36 12,8 C 93 % 1019,5 hPa 0,0 l/m 6,8 km/h (2 Bft) S-SW 207 0 min 0,000 mm 0,0 UV-I 5 W/m 11,7 C 12,6 C 11,3 km/h (2 Bft) 97,87 %
03.07.2016 05:38 12,8 C 93 % 1019,4 hPa 0,0 l/m 8,3 km/h (2 Bft) SW 225 0 min 0,000 mm 0,0 UV-I 5 W/m 11,7 C 11,6 C 14,5 km/h (3 Bft) 97,87 %
03.07.2016 05:40 12,8 C 93 % 1019,4 hPa 0,0 l/m 6,7 km/h (2 Bft) S-SW 210 0 min 0,000 mm 0,0 UV-I 5 W/m 11,7 C 12,6 C 12,9 km/h (3 Bft) 95,74 %
03.07.2016 05:42 12,8 C 93 % 1019,5 hPa 0,0 l/m 9,1 km/h (2 Bft) SW 223 0 min 0,000 mm 0,0 UV-I 6 W/m 11,7 C 11,2 C 14,5 km/h (3 Bft) 97,87 %
03.07.2016 05:44 12,8 C 93 % 1019,5 hPa 0,0 l/m 8,6 km/h (2 Bft) W-SW 239 0 min 0,000 mm 0,0 UV-I 7 W/m 11,7 C 11,4 C 14,5 km/h (3 Bft) 95,74 %
03.07.2016 05:46 12,8 C 93 % 1019,5 hPa 0,0 l/m 9,1 km/h (2 Bft) W-SW 248 0 min 0,000 mm 0,0 UV-I 11 W/m 11,7 C 11,2 C 16,1 km/h (3 Bft) 95,74 %
03.07.2016 05:48 12,8 C 94 % 1019,6 hPa 0,0 l/m 6,5 km/h (2 Bft) SW 223 0 min 0,000 mm 0,0 UV-I 12 W/m 11,9 C 12,8 C 9,7 km/h (2 Bft) 97,44 %
03.07.2016 05:50 12,8 C 94 % 1019,6 hPa 0,0 l/m 10,2 km/h (2 Bft) W-SW 244 0 min 0,000 mm 0,0 UV-I 12 W/m 11,9 C 10,6 C 16,1 km/h (3 Bft) 98,00 %
03.07.2016 05:52 12,8 C 94 % 1019,6 hPa 0,0 l/m 9,4 km/h (2 Bft) SW 226 0 min 0,000 mm 0,0 UV-I 12 W/m 11,9 C 11,0 C 14,5 km/h (3 Bft) 95,74 %
03.07.2016 05:54 12,8 C 94 % 1019,6 hPa 0,0 l/m 7,1 km/h (2 Bft) SW 229 0 min 0,000 mm 0,0 UV-I 13 W/m 11,9 C 12,4 C 11,3 km/h (2 Bft) 100,00 %
03.07.2016 05:56 12,8 C 94 % 1019,6 hPa 0,0 l/m 6,4 km/h (2 Bft) S 186 0 min 0,000 mm 0,0 UV-I 14 W/m 11,9 C 12,8 C 9,7 km/h (2 Bft) 95,74 %
03.07.2016 05:58 12,8 C 94 % 1019,6 hPa 0,0 l/m 7,1 km/h (2 Bft) SW 233 0 min 0,000 mm 0,0 UV-I 16 W/m 11,9 C 12,4 C 12,9 km/h (3 Bft) 100,00 %
03.07.2016 06:00 12,8 C 94 % 1019,7 hPa 0,0 l/m 7,3 km/h (2 Bft) SW 225 0 min 0,000 mm 0,0 UV-I 18 W/m 11,9 C 12,2 C 11,3 km/h (2 Bft) 97,87 %
03.07.2016 06:02 12,8 C 94 % 1019,7 hPa 0,0 l/m 10,8 km/h (2 Bft) SW 224 0 min 0,000 mm 0,0 UV-I 19 W/m 11,9 C 10,3 C 14,5 km/h (3 Bft) 96,08 %
03.07.2016 06:04 12,8 C 94 % 1019,7 hPa 0,0 l/m 9,9 km/h (2 Bft) SW 233 0 min 0,000 mm 0,0 UV-I 21 W/m 11,9 C 10,7 C 16,1 km/h (3 Bft) 97,87 %
03.07.2016 06:06 12,8 C 94 % 1019,7 hPa 0,0 l/m 7,9 km/h (2 Bft) S-SW 196 0 min 0,000 mm 0,0 UV-I 21 W/m 11,9 C 11,9 C 14,5 km/h (3 Bft) 100,00 %
03.07.2016 06:08 12,8 C 94 % 1019,6 hPa 0,0 l/m 9,2 km/h (2 Bft) SW 215 0 min 0,000 mm 0,0 UV-I 25 W/m 11,9 C 11,1 C 16,1 km/h (3 Bft) 100,00 %
03.07.2016 06:10 12,8 C 94 % 1019,6 hPa 0,0 l/m 7,2 km/h (2 Bft) SW 234 0 min 0,000 mm 0,0 UV-I 29 W/m 11,9 C 12,3 C 9,7 km/h (2 Bft) 95,74 %
03.07.2016 06:12 12,9 C 94 % 1019,6 hPa 0,0 l/m 6,8 km/h (2 Bft) S-SW 198 0 min 0,000 mm 0,0 UV-I 33 W/m 12,0 C 12,7 C 9,7 km/h (2 Bft) 100,00 %
03.07.2016 06:14 12,9 C 94 % 1019,6 hPa 0,0 l/m 7,3 km/h (2 Bft) SW 230 0 min 0,000 mm 0,0 UV-I 36 W/m 12,0 C 12,3 C 11,3 km/h (2 Bft) 100,00 %
03.07.2016 06:16 12,9 C 94 % 1019,5 hPa 0,0 l/m 6,9 km/h (2 Bft) S-SW 209 0 min 0,000 mm 0,0 UV-I 41 W/m 12,0 C 12,6 C 9,7 km/h (2 Bft) 95,74 %
03.07.2016 06:18 12,9 C 94 % 1019,6 hPa 0,0 l/m 6,5 km/h (2 Bft) S-SW 202 0 min 0,000 mm 0,0 UV-I 47 W/m 12,0 C 12,9 C 9,7 km/h (2 Bft) 100,00 %
03.07.2016 06:20 12,9 C 94 % 1019,6 hPa 0,0 l/m 6,3 km/h (2 Bft) S-SW 204 0 min 0,000 mm 0,0 UV-I 49 W/m 12,0 C 12,9 C 9,7 km/h (2 Bft) 100,00 %
03.07.2016 06:22 13,0 C 94 % 1019,6 hPa 0,0 l/m 6,4 km/h (2 Bft) W 267 0 min 0,000 mm 0,0 UV-I 50 W/m 12,1 C 13,0 C 9,7 km/h (2 Bft) 97,92 %
03.07.2016 06:24 13,0 C 94 % 1019,6 hPa 0,0 l/m 8,3 km/h (2 Bft) W-SW 243 0 min 0,000 mm 0,0 UV-I 51 W/m 12,1 C 11,8 C 14,5 km/h (3 Bft) 97,87 %
03.07.2016 06:26 13,1 C 94 % 1019,6 hPa 0,0 l/m 8,9 km/h (2 Bft) W-SW 240 0 min 0,000 mm 0,0 UV-I 49 W/m 12,2 C 11,6 C 14,5 km/h (3 Bft) 100,00 %
03.07.2016 06:28 13,1 C 94 % 1019,5 hPa 0,0 l/m 7,9 km/h (2 Bft) SW 235 0 min 0,000 mm 0,0 UV-I 47 W/m 12,2 C 12,2 C 12,9 km/h (3 Bft) 97,87 %
03.07.2016 06:30 13,1 C 94 % 1019,6 hPa 0,0 l/m 10,0 km/h (2 Bft) SW 234 0 min 0,000 mm 0,0 UV-I 49 W/m 12,2 C 11,0 C 16,1 km/h (3 Bft) 100,00 %
03.07.2016 06:32 13,1 C 94 % 1019,6 hPa 0,0 l/m 9,0 km/h (2 Bft) SW 227 0 min 0,000 mm 0,0 UV-I 52 W/m 12,2 C 11,5 C 14,5 km/h (3 Bft) 100,00 %
03.07.2016 06:34 13,1 C 94 % 1019,6 hPa 0,0 l/m 8,0 km/h (2 Bft) SW 232 0 min 0,000 mm 0,0 UV-I 58 W/m 12,2 C 12,1 C 12,9 km/h (3 Bft) 100,00 %
03.07.2016 06:36 13,2 C 94 % 1019,6 hPa 0,0 l/m 8,3 km/h (2 Bft) SW 219 0 min 0,000 mm 0,0 UV-I 64 W/m 12,3 C 12,0 C 12,9 km/h (3 Bft) 100,00 %
03.07.2016 06:38 13,2 C 94 % 1019,6 hPa 0,0 l/m 7,2 km/h (2 Bft) S-SW 204 0 min 0,000 mm 0,0 UV-I 65 W/m 12,3 C 12,7 C 11,3 km/h (2 Bft) 100,00 %
03.07.2016 06:40 13,2 C 94 % 1019,6 hPa 0,0 l/m 5,8 km/h (2 Bft) SW 226 0 min 0,000 mm 0,0 UV-I 63 W/m 12,3 C 13,2 C 8,0 km/h (2 Bft) 92,11 %
03.07.2016 06:42 13,2 C 93 % 1019,6 hPa 0,0 l/m 7,2 km/h (2 Bft) S-SW 201 0 min 0,000 mm 0,0 UV-I 62 W/m 12,1 C 12,7 C 12,9 km/h (3 Bft) 100,00 %
03.07.2016 06:44 13,2 C 93 % 1019,6 hPa 0,0 l/m 7,4 km/h (2 Bft) S 178 0 min 0,000 mm 0,0 UV-I 62 W/m 12,1 C 12,6 C 16,1 km/h (3 Bft) 100,00 %
03.07.2016 06:46 13,2 C 93 % 1019,6 hPa 0,0 l/m 8,2 km/h (2 Bft) S-SW 213 0 min 0,000 mm 0,0 UV-I 64 W/m 12,1 C 12,1 C 11,3 km/h (2 Bft) 93,62 %
03.07.2016 06:48 13,3 C 93 % 1019,6 hPa 0,0 l/m 6,3 km/h (2 Bft) S-SW 203 0 min 0,000 mm 0,0 UV-I 63 W/m 12,2 C 13,3 C 9,7 km/h (2 Bft) 100,00 %
03.07.2016 06:50 13,3 C 93 % 1019,7 hPa 0,0 l/m 6,7 km/h (2 Bft) S-SW 209 0 min 0,000 mm 0,0 UV-I 57 W/m 12,2 C 13,1 C 9,7 km/h (2 Bft) 100,00 %
03.07.2016 06:52 13,3 C 93 % 1019,8 hPa 0,0 l/m 7,4 km/h (2 Bft) S 186 0 min 0,000 mm 0,0 UV-I 57 W/m 12,2 C 12,7 C 11,3 km/h (2 Bft) 98,00 %
03.07.2016 06:54 13,3 C 93 % 1019,8 hPa 0,0 l/m 6,5 km/h (2 Bft) W-SW 250 0 min 0,000 mm 0,0 UV-I 63 W/m 12,2 C 13,3 C 12,9 km/h (3 Bft) 97,87 %
03.07.2016 06:56 13,3 C 93 % 1019,8 hPa 0,0 l/m 7,7 km/h (2 Bft) S 180 0 min 0,000 mm 0,0 UV-I 70 W/m 12,2 C 12,5 C 11,3 km/h (2 Bft) 98,00 %
03.07.2016 06:58 13,3 C 93 % 1019,8 hPa 0,0 l/m 7,8 km/h (2 Bft) W-SW 238 0 min 0,000 mm 0,0 UV-I 78 W/m 12,2 C 12,4 C 12,9 km/h (3 Bft) 97,87 %
03.07.2016 07:00 13,4 C 94 % 1019,9 hPa 0,0 l/m 7,5 km/h (2 Bft) S-SW 211 0 min 0,025 mm 0,0 UV-I 90 W/m 12,5 C 12,7 C 14,5 km/h (3 Bft) 97,87 %
03.07.2016 07:02 13,4 C 94 % 1020,0 hPa 0,0 l/m 8,6 km/h (2 Bft) W-SW 238 0 min 0,000 mm 0,0 UV-I 92 W/m 12,5 C 12,1 C 12,9 km/h (3 Bft) 98,00 %
03.07.2016 07:04 13,5 C 94 % 1020,0 hPa 0,0 l/m 7,9 km/h (2 Bft) SW 228 0 min 0,000 mm 0,0 UV-I 85 W/m 12,6 C 12,6 C 12,9 km/h (3 Bft) 100,00 %
03.07.2016 07:06 13,5 C 94 % 1020,1 hPa 0,0 l/m 8,1 km/h (2 Bft) W-SW 248 0 min 0,000 mm 0,0 UV-I 81 W/m 12,6 C 12,5 C 11,3 km/h (2 Bft) 100,00 %
03.07.2016 07:08 13,6 C 94 % 1020,0 hPa 0,0 l/m 7,6 km/h (2 Bft) SW 230 0 min 0,000 mm 0,0 UV-I 83 W/m 12,7 C 12,9 C 12,9 km/h (3 Bft) 100,00 %
03.07.2016 07:10 13,6 C 93 % 1020,0 hPa 0,0 l/m 6,9 km/h (2 Bft) W-SW 248 0 min 0,000 mm 0,0 UV-I 87 W/m 12,5 C 13,3 C 14,5 km/h (3 Bft) 100,00 %
03.07.2016 07:12 13,6 C 94 % 1020,0 hPa 0,0 l/m 6,2 km/h (2 Bft) SW 232 0 min 0,000 mm 0,0 UV-I 91 W/m 12,7 C 13,6 C 9,7 km/h (2 Bft) 100,00 %
03.07.2016 07:14 13,7 C 93 % 1020,0 hPa 0,0 l/m 6,7 km/h (2 Bft) S-SW 213 0 min 0,000 mm 0,0 UV-I 97 W/m 12,6 C 13,5 C 12,9 km/h (3 Bft) 100,00 %
03.07.2016 07:16 13,7 C 93 % 1019,9 hPa 0,0 l/m 4,7 km/h (1 Bft) W-SW 241 0 min 0,000 mm 0,0 UV-I 101 W/m 12,6 C 13,7 C 9,7 km/h (2 Bft) 98,11 %
03.07.2016 07:18 13,7 C 93 % 1020,0 hPa 0,0 l/m 8,4 km/h (2 Bft) SW 225 0 min 0,000 mm 0,0 UV-I 104 W/m 12,6 C 12,5 C 14,5 km/h (3 Bft) 100,00 %
03.07.2016 07:20 13,7 C 93 % 1020,0 hPa 0,0 l/m 8,9 km/h (2 Bft) SW 228 0 min 0,000 mm 0,0 UV-I 97 W/m 12,6 C 12,2 C 14,5 km/h (3 Bft) 95,74 %
03.07.2016 07:22 13,8 C 93 % 1020,0 hPa 0,0 l/m 9,2 km/h (2 Bft) SW 221 0 min 0,000 mm 0,0 UV-I 93 W/m 12,7 C 12,2 C 12,9 km/h (3 Bft) 93,62 %
03.07.2016 07:24 13,8 C 92 % 1019,9 hPa 0,0 l/m 7,3 km/h (2 Bft) SW 217 0 min 0,000 mm 0,0 UV-I 107 W/m 12,5 C 13,3 C 11,3 km/h (2 Bft) 94,74 %
03.07.2016 07:26 13,8 C 92 % 1019,9 hPa 0,0 l/m 8,0 km/h (2 Bft) SW 216 0 min 0,000 mm 0,0 UV-I 120 W/m 12,5 C 12,8 C 14,5 km/h (3 Bft) 97,87 %
03.07.2016 07:28 13,8 C 93 % 1019,9 hPa 0,0 l/m 7,7 km/h (2 Bft) S-SW 199 0 min 0,000 mm 0,0 UV-I 117 W/m 12,7 C 13,0 C 12,9 km/h (3 Bft) 95,74 %
03.07.2016 07:30 13,8 C 92 % 1019,8 hPa 0,0 l/m 8,0 km/h (2 Bft) SW 232 0 min 0,000 mm 0,0 UV-I 104 W/m 12,5 C 12,8 C 12,9 km/h (3 Bft) 95,74 %
03.07.2016 07:32 13,8 C 92 % 1019,9 hPa 0,0 l/m 7,6 km/h (2 Bft) S-SW 212 0 min 0,000 mm 0,0 UV-I 98 W/m 12,5 C 13,1 C 14,5 km/h (3 Bft) 98,00 %
03.07.2016 07:34 13,8 C 92 % 1019,9 hPa 0,0 l/m 8,0 km/h (2 Bft) SW 217 0 min 0,000 mm 0,4 UV-I 109 W/m 12,5 C 12,8 C 14,5 km/h (3 Bft) 95,74 %
03.07.2016 07:36 13,8 C 92 % 1019,8 hPa 0,0 l/m 7,6 km/h (2 Bft) SW 223 0 min 0,000 mm 0,5 UV-I 125 W/m 12,5 C 13,1 C 12,9 km/h (3 Bft) 93,62 %
03.07.2016 07:38 13,9 C 93 % 1019,9 hPa 0,0 l/m 5,9 km/h (2 Bft) SW 230 0 min 0,000 mm 0,5 UV-I 135 W/m 12,8 C 13,9 C 11,3 km/h (2 Bft) 97,87 %
03.07.2016 07:40 13,9 C 93 % 1019,9 hPa 0,0 l/m 6,5 km/h (2 Bft) SW 229 0 min 0,000 mm 0,6 UV-I 136 W/m 12,8 C 13,9 C 9,7 km/h (2 Bft) 95,74 %
03.07.2016 07:42 13,9 C 92 % 1019,9 hPa 0,0 l/m 5,9 km/h (2 Bft) SW 236 0 min 0,000 mm 0,6 UV-I 144 W/m 12,6 C 13,9 C 8,0 km/h (2 Bft) 93,62 %
03.07.2016 07:44 14,0 C 92 % 1019,9 hPa 0,0 l/m 4,2 km/h (1 Bft) SW 229 0 min 0,000 mm 0,6 UV-I 152 W/m 12,7 C 14,0 C 6,4 km/h (2 Bft) 96,00 %
03.07.2016 07:46 14,1 C 92 % 1020,0 hPa 0,0 l/m 4,4 km/h (1 Bft) W-SW 243 0 min 0,000 mm 0,6 UV-I 150 W/m 12,8 C 14,1 C 6,4 km/h (2 Bft) 97,44 %
03.07.2016 07:48 14,2 C 92 % 1020,0 hPa 0,0 l/m 5,5 km/h (1 Bft) W-SW 238 0 min 0,000 mm 0,7 UV-I 163 W/m 12,9 C 14,2 C 9,7 km/h (2 Bft) 95,74 %
03.07.2016 07:50 14,2 C 92 % 1020,0 hPa 0,0 l/m 5,7 km/h (1 Bft) SW 217 0 min 0,000 mm 0,7 UV-I 166 W/m 12,9 C 14,2 C 8,0 km/h (2 Bft) 95,74 %
03.07.2016 07:52 14,2 C 92 % 1020,0 hPa 0,0 l/m 11,7 km/h (2 Bft) SW 215 0 min 0,000 mm 0,7 UV-I 145 W/m 12,9 C 11,5 C 16,1 km/h (3 Bft) 95,74 %
03.07.2016 07:54 14,2 C 90 % 1020,0 hPa 0,0 l/m 11,0 km/h (2 Bft) SW 234 0 min 0,000 mm 0,7 UV-I 135 W/m 12,6 C 11,8 C 16,1 km/h (3 Bft) 97,87 %
03.07.2016 07:56 14,2 C 91 % 1020,1 hPa 0,0 l/m 7,1 km/h (2 Bft) W-SW 241 0 min 0,000 mm 0,8 UV-I 159 W/m 12,8 C 13,8 C 9,7 km/h (2 Bft) 95,74 %
03.07.2016 07:58 14,3 C 91 % 1020,1 hPa 0,0 l/m 6,1 km/h (2 Bft) W-SW 244 0 min 0,000 mm 0,8 UV-I 198 W/m 12,8 C 14,3 C 11,3 km/h (2 Bft) 100,00 %
03.07.2016 08:00 14,4 C 92 % 1020,2 hPa 0,0 l/m 6,5 km/h (2 Bft) SW 230 2 min 0,077 mm 0,9 UV-I 238 W/m 13,1 C 14,4 C 11,3 km/h (2 Bft) 97,87 %
03.07.2016 08:02 14,7 C 92 % 1020,3 hPa 0,0 l/m 5,8 km/h (2 Bft) W-SW 257 2 min 0,000 mm 1,1 UV-I 374 W/m 13,4 C 14,7 C 12,9 km/h (3 Bft) 100,00 %
03.07.2016 08:04 14,8 C 91 % 1020,2 hPa 0,0 l/m 8,2 km/h (2 Bft) W-SW 254 2 min 0,000 mm 0,9 UV-I 369 W/m 13,3 C 13,8 C 16,1 km/h (3 Bft) 95,74 %
03.07.2016 08:06 14,8 C 88 % 1020,1 hPa 0,0 l/m 8,4 km/h (2 Bft) SW 223 0 min 0,000 mm 0,8 UV-I 212 W/m 12,8 C 13,7 C 12,9 km/h (3 Bft) 95,74 %
03.07.2016 08:08 14,8 C 88 % 1020,2 hPa 0,0 l/m 9,2 km/h (2 Bft) S 186 0 min 0,000 mm 0,9 UV-I 179 W/m 12,8 C 13,3 C 14,5 km/h (3 Bft) 100,00 %
03.07.2016 08:10 14,8 C 89 % 1020,1 hPa 0,0 l/m 10,0 km/h (2 Bft) W-SW 244 2 min 0,000 mm 1,0 UV-I 274 W/m 13,0 C 12,9 C 16,1 km/h (3 Bft) 95,74 %
03.07.2016 08:12 14,9 C 89 % 1020,1 hPa 0,0 l/m 7,6 km/h (2 Bft) SW 227 2 min 0,000 mm 1,1 UV-I 376 W/m 13,1 C 14,2 C 14,5 km/h (3 Bft) 98,00 %
03.07.2016 08:14 15,1 C 87 % 1020,1 hPa 0,0 l/m 10,4 km/h (2 Bft) SW 219 2 min 0,000 mm 1,1 UV-I 343 W/m 13,0 C 13,1 C 19,3 km/h (3 Bft) 100,00 %
03.07.2016 08:16 15,1 C 87 % 1020,1 hPa 0,0 l/m 11,8 km/h (2 Bft) W-SW 245 2 min 0,000 mm 1,1 UV-I 264 W/m 13,0 C 12,5 C 17,7 km/h (3 Bft) 97,37 %
03.07.2016 08:18 15,1 C 86 % 1020,1 hPa 0,0 l/m 12,9 km/h (3 Bft) SW 226 2 min 0,000 mm 1,1 UV-I 264 W/m 12,8 C 12,0 C 19,3 km/h (3 Bft) 100,00 %
03.07.2016 08:20 15,1 C 85 % 1020,1 hPa 0,0 l/m 10,4 km/h (2 Bft) W-SW 248 0 min 0,000 mm 1,2 UV-I 253 W/m 12,6 C 13,1 C 14,5 km/h (3 Bft) 98,00 %
03.07.2016 08:22 15,2 C 86 % 1020,1 hPa 0,0 l/m 13,5 km/h (3 Bft) W 262 2 min 0,000 mm 1,4 UV-I 429 W/m 12,9 C 11,9 C 19,3 km/h (3 Bft) 97,92 %
03.07.2016 08:24 15,3 C 86 % 1020,1 hPa 0,0 l/m 10,6 km/h (2 Bft) N 360 2 min 0,000 mm 1,3 UV-I 445 W/m 13,0 C 13,2 C 16,1 km/h (3 Bft) 97,87 %
03.07.2016 08:26 15,3 C 86 % 1020,1 hPa 0,0 l/m 9,5 km/h (2 Bft) SW 229 2 min 0,000 mm 1,3 UV-I 310 W/m 13,0 C 13,7 C 14,5 km/h (3 Bft) 100,00 %
03.07.2016 08:28 15,4 C 86 % 1020,1 hPa 0,0 l/m 8,8 km/h (2 Bft) W 268 2 min 0,000 mm 1,4 UV-I 311 W/m 13,1 C 14,1 C 14,5 km/h (3 Bft) 97,87 %
03.07.2016 08:30 15,5 C 87 % 1020,2 hPa 0,0 l/m 8,4 km/h (2 Bft) SW 236 2 min 0,000 mm 1,5 UV-I 381 W/m 13,3 C 14,4 C 11,3 km/h (2 Bft) 98,00 %
03.07.2016 08:32 15,6 C 87 % 1020,2 hPa 0,0 l/m 10,5 km/h (2 Bft) SW 236 2 min 0,000 mm 1,4 UV-I 320 W/m 13,4 C 13,6 C 19,3 km/h (3 Bft) 100,00 %
03.07.2016 08:34 15,6 C 85 % 1020,2 hPa 0,0 l/m 9,1 km/h (2 Bft) SW 215 2 min 0,000 mm 1,5 UV-I 322 W/m 13,1 C 14,2 C 19,3 km/h (3 Bft) 100,00 %
03.07.2016 08:36 15,7 C 85 % 1020,2 hPa 0,0 l/m 8,9 km/h (2 Bft) SW 228 2 min 0,000 mm 1,5 UV-I 387 W/m 13,2 C 14,4 C 14,5 km/h (3 Bft) 97,37 %
03.07.2016 08:38 15,7 C 86 % 1020,2 hPa 0,0 l/m 8,8 km/h (2 Bft) W-SW 248 2 min 0,000 mm 1,5 UV-I 343 W/m 13,4 C 14,4 C 16,1 km/h (3 Bft) 100,00 %
03.07.2016 08:40 15,8 C 86 % 1020,2 hPa 0,0 l/m 9,5 km/h (2 Bft) SW 235 2 min 0,000 mm 1,6 UV-I 412 W/m 13,5 C 14,2 C 14,5 km/h (3 Bft) 100,00 %
03.07.2016 08:42 15,8 C 84 % 1020,2 hPa 0,0 l/m 10,3 km/h (2 Bft) SW 234 2 min 0,000 mm 1,6 UV-I 375 W/m 13,1 C 13,9 C 17,7 km/h (3 Bft) 100,00 %
03.07.2016 08:44 15,8 C 84 % 1020,3 hPa 0,0 l/m 11,4 km/h (2 Bft) SW 219 2 min 0,000 mm 1,5 UV-I 314 W/m 13,1 C 13,4 C 17,7 km/h (3 Bft) 100,00 %
03.07.2016 08:46 15,8 C 84 % 1020,3 hPa 0,0 l/m 10,9 km/h (2 Bft) W-SW 249 0 min 0,000 mm 1,4 UV-I 278 W/m 13,1 C 13,6 C 16,1 km/h (3 Bft) 97,87 %
03.07.2016 08:48 15,8 C 84 % 1020,3 hPa 0,0 l/m 12,4 km/h (3 Bft) S-SW 200 2 min 0,000 mm 1,5 UV-I 309 W/m 13,1 C 13,0 C 20,9 km/h (4 Bft) 98,00 %
03.07.2016 08:50 15,7 C 84 % 1020,3 hPa 0,0 l/m 11,4 km/h (2 Bft) W-SW 248 2 min 0,000 mm 1,6 UV-I 342 W/m 13,0 C 13,3 C 19,3 km/h (3 Bft) 100,00 %
03.07.2016 08:52 15,8 C 84 % 1020,2 hPa 0,0 l/m 8,0 km/h (2 Bft) S 180 2 min 0,000 mm 1,6 UV-I 348 W/m 13,1 C 14,9 C 11,3 km/h (2 Bft) 100,00 %
03.07.2016 08:54 15,9 C 85 % 1020,2 hPa 0,0 l/m 12,7 km/h (3 Bft) W-SW 254 2 min 0,000 mm 1,7 UV-I 412 W/m 13,4 C 13,1 C 19,3 km/h (3 Bft) 100,00 %
03.07.2016 08:56 15,9 C 83 % 1020,2 hPa 0,0 l/m 9,0 km/h (2 Bft) W-SW 240 2 min 0,000 mm 1,6 UV-I 348 W/m 13,0 C 14,6 C 14,5 km/h (3 Bft) 97,87 %
03.07.2016 08:58 15,9 C 84 % 1020,1 hPa 0,0 l/m 9,3 km/h (2 Bft) W-SW 258 0 min 0,000 mm 1,5 UV-I 279 W/m 13,2 C 14,4 C 16,1 km/h (3 Bft) 100,00 %
03.07.2016 09:00 15,8 C 85 % 1020,1 hPa 0,0 l/m 8,2 km/h (2 Bft) W-SW 248 0 min 0,177 mm 1,5 UV-I 260 W/m 13,3 C 14,8 C 14,5 km/h (3 Bft) 100,00 %
03.07.2016 09:02 15,8 C 84 % 1020,1 hPa 0,0 l/m 5,7 km/h (1 Bft) W-SW 256 0 min 0,000 mm 1,6 UV-I 310 W/m 13,1 C 15,8 C 12,9 km/h (3 Bft) 97,87 %
03.07.2016 09:04 15,8 C 83 % 1020,1 hPa 0,0 l/m 6,9 km/h (2 Bft) W-SW 244 0 min 0,000 mm 1,6 UV-I 282 W/m 12,9 C 15,5 C 9,7 km/h (2 Bft) 97,87 %
03.07.2016 09:06 15,9 C 84 % 1020,1 hPa 0,0 l/m 8,8 km/h (2 Bft) S 181 0 min 0,000 mm 1,7 UV-I 288 W/m 13,2 C 14,7 C 14,5 km/h (3 Bft) 100,00 %
03.07.2016 09:08 15,9 C 84 % 1020,2 hPa 0,0 l/m 10,9 km/h (2 Bft) S-SW 209 2 min 0,000 mm 1,8 UV-I 386 W/m 13,2 C 13,7 C 19,3 km/h (3 Bft) 100,00 %
03.07.2016 09:10 15,9 C 85 % 1020,2 hPa 0,0 l/m 7,4 km/h (2 Bft) W 265 2 min 0,000 mm 1,6 UV-I 335 W/m 13,4 C 15,4 C 11,3 km/h (2 Bft) 100,00 %
03.07.2016 09:12 15,9 C 84 % 1020,3 hPa 0,0 l/m 10,1 km/h (2 Bft) W-SW 238 0 min 0,000 mm 1,5 UV-I 266 W/m 13,2 C 14,1 C 16,1 km/h (3 Bft) 97,37 %
03.07.2016 09:14 15,9 C 83 % 1020,3 hPa 0,0 l/m 10,3 km/h (2 Bft) W-NW 286 0 min 0,000 mm 1,7 UV-I 292 W/m 13,0 C 14,0 C 17,7 km/h (3 Bft) 100,00 %
03.07.2016 09:16 15,9 C 83 % 1020,3 hPa 0,0 l/m 8,9 km/h (2 Bft) W-SW 244 2 min 0,000 mm 1,9 UV-I 346 W/m 13,0 C 14,6 C 12,9 km/h (3 Bft) 100,00 %
03.07.2016 09:18 15,9 C 84 % 1020,3 hPa 0,0 l/m 8,8 km/h (2 Bft) W-SW 255 2 min 0,000 mm 2,0 UV-I 422 W/m 13,2 C 14,7 C 16,1 km/h (3 Bft) 98,00 %
03.07.2016 09:20 16,1 C 85 % 1020,2 hPa 0,0 l/m 7,9 km/h (2 Bft) W-SW 248 2 min 0,000 mm 2,1 UV-I 421 W/m 13,6 C 15,3 C 14,5 km/h (3 Bft) 95,74 %
03.07.2016 09:22 16,2 C 83 % 1020,3 hPa 0,0 l/m 8,9 km/h (2 Bft) SW 234 2 min 0,000 mm 2,1 UV-I 428 W/m 13,3 C 14,9 C 14,5 km/h (3 Bft) 95,74 %
03.07.2016 09:24 16,3 C 82 % 1020,2 hPa 0,0 l/m 10,0 km/h (2 Bft) W-SW 243 2 min 0,000 mm 2,0 UV-I 395 W/m 13,2 C 14,6 C 12,9 km/h (3 Bft) 97,87 %
03.07.2016 09:26 16,3 C 81 % 1020,2 hPa 0,0 l/m 9,2 km/h (2 Bft) SW 234 2 min 0,000 mm 2,0 UV-I 408 W/m 13,0 C 14,9 C 14,5 km/h (3 Bft) 97,87 %
03.07.2016 09:28 16,3 C 81 % 1020,2 hPa 0,0 l/m 8,3 km/h (2 Bft) SW 220 2 min 0,000 mm 1,8 UV-I 365 W/m 13,0 C 15,3 C 14,5 km/h (3 Bft) 95,74 %
03.07.2016 09:30 16,3 C 81 % 1020,2 hPa 0,0 l/m 8,6 km/h (2 Bft) W-SW 244 0 min 0,000 mm 1,8 UV-I 344 W/m 13,0 C 15,2 C 12,9 km/h (3 Bft) 98,00 %
03.07.2016 09:32 16,3 C 82 % 1020,2 hPa 0,0 l/m 7,6 km/h (2 Bft) SW 232 0 min 0,000 mm 2,0 UV-I 351 W/m 13,2 C 15,7 C 16,1 km/h (3 Bft) 93,62 %
03.07.2016 09:34 16,3 C 82 % 1020,1 hPa 0,0 l/m 10,5 km/h (2 Bft) W-SW 251 2 min 0,000 mm 2,0 UV-I 376 W/m 13,2 C 14,3 C 14,5 km/h (3 Bft) 97,87 %
03.07.2016 09:36 16,3 C 81 % 1020,1 hPa 0,0 l/m 10,2 km/h (2 Bft) SW 226 2 min 0,000 mm 2,2 UV-I 425 W/m 13,0 C 14,5 C 16,1 km/h (3 Bft) 93,62 %
03.07.2016 09:38 16,3 C 81 % 1020,1 hPa 0,0 l/m 8,3 km/h (2 Bft) SW 227 2 min 0,000 mm 2,0 UV-I 394 W/m 13,0 C 15,3 C 14,5 km/h (3 Bft) 100,00 %
03.07.2016 09:40 16,4 C 82 % 1020,1 hPa 0,0 l/m 8,2 km/h (2 Bft) W-SW 240 0 min 0,000 mm 1,9 UV-I 324 W/m 13,3 C 15,5 C 12,9 km/h (3 Bft) 96,00 %
03.07.2016 09:42 16,4 C 83 % 1020,1 hPa 0,0 l/m 4,4 km/h (1 Bft) SW 232 0 min 0,000 mm 1,9 UV-I 312 W/m 13,5 C 16,4 C 9,7 km/h (2 Bft) 96,00 %
03.07.2016 09:44 16,4 C 82 % 1020,2 hPa 0,0 l/m 7,5 km/h (2 Bft) W 263 2 min 0,000 mm 2,3 UV-I 369 W/m 13,3 C 15,8 C 19,3 km/h (3 Bft) 97,87 %
03.07.2016 09:46 16,3 C 81 % 1020,2 hPa 0,0 l/m 9,2 km/h (2 Bft) SW 228 2 min 0,000 mm 2,4 UV-I 396 W/m 13,0 C 14,9 C 16,1 km/h (3 Bft) 93,62 %
03.07.2016 09:48 16,4 C 83 % 1020,2 hPa 0,0 l/m 3,7 km/h (1 Bft) W-SW 246 2 min 0,000 mm 2,6 UV-I 416 W/m 13,5 C 16,4 C 8,0 km/h (2 Bft) 97,87 %
03.07.2016 09:50 16,6 C 82 % 1020,2 hPa 0,0 l/m 5,1 km/h (1 Bft) SW 236 2 min 0,000 mm 3,0 UV-I 434 W/m 13,5 C 16,6 C 11,3 km/h (2 Bft) 98,00 %
03.07.2016 09:52 16,7 C 82 % 1020,2 hPa 0,0 l/m 4,4 km/h (1 Bft) W 263 2 min 0,000 mm 2,6 UV-I 433 W/m 13,6 C 16,7 C 6,4 km/h (2 Bft) 100,00 %
03.07.2016 09:54 16,7 C 82 % 1020,2 hPa 0,0 l/m 4,7 km/h (1 Bft) W 263 2 min 0,000 mm 2,5 UV-I 392 W/m 13,6 C 16,7 C 9,7 km/h (2 Bft) 97,37 %
03.07.2016 09:56 16,6 C 81 % 1020,3 hPa 0,0 l/m 5,0 km/h (1 Bft) W-SW 240 2 min 0,000 mm 2,5 UV-I 388 W/m 13,3 C 16,6 C 6,4 km/h (2 Bft) 100,00 %
03.07.2016 09:58 16,6 C 80 % 1020,3 hPa 0,0 l/m 7,2 km/h (2 Bft) SW 223 0 min 0,000 mm 2,4 UV-I 356 W/m 13,1 C 16,2 C 14,5 km/h (3 Bft) 98,00 %
03.07.2016 10:00 16,6 C 82 % 1020,3 hPa 0,0 l/m 7,7 km/h (2 Bft) W-SW 253 0 min 0,229 mm 2,6 UV-I 370 W/m 13,5 C 15,9 C 12,9 km/h (3 Bft) 100,00 %
03.07.2016 10:02 16,6 C 81 % 1020,3 hPa 0,0 l/m 3,2 km/h (1 Bft) W-SW 257 2 min 0,000 mm 2,8 UV-I 418 W/m 13,3 C 16,6 C 6,4 km/h (2 Bft) 97,92 %
03.07.2016 10:04 16,6 C 81 % 1020,3 hPa 0,0 l/m 3,0 km/h (1 Bft) W 260 2 min 0,000 mm 2,9 UV-I 454 W/m 13,3 C 16,6 C 6,4 km/h (2 Bft) 97,87 %
03.07.2016 10:06 16,8 C 83 % 1020,3 hPa 0,0 l/m 4,2 km/h (1 Bft) W-SW 246 2 min 0,000 mm 2,8 UV-I 484 W/m 13,9 C 16,8 C 9,7 km/h (2 Bft) 98,00 %
03.07.2016 10:08 16,8 C 81 % 1020,3 hPa 0,0 l/m 4,2 km/h (1 Bft) S-SO 162 2 min 0,000 mm 2,3 UV-I 454 W/m 13,5 C 16,8 C 8,0 km/h (2 Bft) 100,00 %
03.07.2016 10:10 16,8 C 80 % 1020,3 hPa 0,0 l/m 7,6 km/h (2 Bft) W-SW 245 0 min 0,000 mm 1,9 UV-I 294 W/m 13,3 C 16,2 C 16,1 km/h (3 Bft) 100,00 %
03.07.2016 10:12 16,7 C 78 % 1020,3 hPa 0,0 l/m 9,6 km/h (2 Bft) SW 218 0 min 0,000 mm 2,1 UV-I 289 W/m 12,8 C 15,2 C 16,1 km/h (3 Bft) 100,00 %
03.07.2016 10:14 16,6 C 79 % 1020,4 hPa 0,0 l/m 7,9 km/h (2 Bft) W 259 0 min 0,000 mm 2,5 UV-I 322 W/m 12,9 C 15,8 C 14,5 km/h (3 Bft) 97,87 %
03.07.2016 10:16 16,8 C 80 % 1020,4 hPa 0,0 l/m 6,4 km/h (2 Bft) W 273 0 min 0,000 mm 3,6 UV-I 350 W/m 13,3 C 16,8 C 14,5 km/h (3 Bft) 100,00 %
03.07.2016 10:18 16,9 C 81 % 1020,4 hPa 0,0 l/m 5,9 km/h (2 Bft) W 263 2 min 0,000 mm 3,8 UV-I 458 W/m 13,6 C 16,9 C 11,3 km/h (2 Bft) 100,00 %
03.07.2016 10:20 17,1 C 78 % 1020,4 hPa 0,0 l/m 7,1 km/h (2 Bft) W-SW 239 2 min 0,000 mm 3,2 UV-I 426 W/m 13,2 C 16,7 C 12,9 km/h (3 Bft) 100,00 %
03.07.2016 10:22 17,1 C 80 % 1020,4 hPa 0,0 l/m 3,4 km/h (1 Bft) SW 231 2 min 0,000 mm 3,0 UV-I 422 W/m 13,6 C 17,1 C 6,4 km/h (2 Bft) 100,00 %
03.07.2016 10:24 17,0 C 80 % 1020,5 hPa 0,0 l/m 8,1 km/h (2 Bft) S-SW 199 0 min 0,000 mm 3,0 UV-I 378 W/m 13,5 C 16,2 C 11,3 km/h (2 Bft) 100,00 %
03.07.2016 10:26 17,0 C 80 % 1020,4 hPa 0,0 l/m 8,6 km/h (2 Bft) W-SW 243 2 min 0,000 mm 3,5 UV-I 480 W/m 13,5 C 15,9 C 14,5 km/h (3 Bft) 100,00 %
03.07.2016 10:28 17,1 C 77 % 1020,4 hPa 0,0 l/m 10,0 km/h (2 Bft) SW 223 2 min 0,000 mm 3,9 UV-I 655 W/m 13,0 C 15,4 C 14,5 km/h (3 Bft) 100,00 %
03.07.2016 10:30 17,2 C 78 % 1020,5 hPa 0,0 l/m 7,0 km/h (2 Bft) W-SW 258 2 min 0,000 mm 3,4 UV-I 549 W/m 13,3 C 16,9 C 16,1 km/h (3 Bft) 100,00 %
03.07.2016 10:32 17,3 C 79 % 1020,5 hPa 0,0 l/m 7,2 km/h (2 Bft) W-SW 244 2 min 0,000 mm 2,9 UV-I 455 W/m 13,6 C 16,9 C 14,5 km/h (3 Bft) 100,00 %
03.07.2016 10:34 17,2 C 76 % 1020,5 hPa 0,0 l/m 10,8 km/h (2 Bft) W-SW 247 0 min 0,000 mm 2,2 UV-I 347 W/m 12,9 C 15,2 C 16,1 km/h (3 Bft) 100,00 %
03.07.2016 10:35 17,2 C 77 % 1020,5 hPa 0,0 l/m 9,7 km/h (2 Bft) W-SW 247 0 min 0,000 mm 2,3 UV-I 348 W/m 13,1 C 15,7 C 16,1 km/h (3 Bft) 99,12 %
03.07.2016 10:40 16,9 C 80 % 1020,5 hPa 0,0 l/m 7,1 km/h (2 Bft) SW 227 0 min 0,000 mm 1,5 UV-I 226 W/m 13,4 C 16,5 C 12,9 km/h (3 Bft) 100,00 %
03.07.2016 10:42 16,9 C 78 % 1020,5 hPa 0,0 l/m 7,0 km/h (2 Bft) W-SW 258 0 min 0,000 mm 1,3 UV-I 181 W/m 13,0 C 16,6 C 14,5 km/h (3 Bft) 100,00 %
03.07.2016 10:45 16,8 C 78 % 1020,5 hPa 0,0 l/m 8,0 km/h (2 Bft) W-SW 247 0 min 0,000 mm 1,5 UV-I 209 W/m 12,9 C 16,0 C 14,5 km/h (3 Bft) 100,00 %
03.07.2016 10:48 16,7 C 77 % 1020,5 hPa 0,0 l/m 12,1 km/h (2 Bft) W-SW 243 0 min 0,000 mm 2,2 UV-I 279 W/m 12,6 C 14,2 C 16,1 km/h (3 Bft) 97,84 %
03.07.2016 10:50 16,7 C 77 % 1020,5 hPa 0,0 l/m 9,6 km/h (2 Bft) W-SW 242 0 min 0,000 mm 3,0 UV-I 331 W/m 12,6 C 15,2 C 16,1 km/h (3 Bft) 95,74 %
03.07.2016 10:52 16,8 C 77 % 1020,4 hPa 0,0 l/m 9,3 km/h (2 Bft) W-SW 238 0 min 0,000 mm 2,9 UV-I 367 W/m 12,7 C 15,4 C 14,5 km/h (3 Bft) 97,87 %
03.07.2016 10:54 16,9 C 77 % 1020,4 hPa 0,0 l/m 5,4 km/h (1 Bft) W-SW 250 0 min 0,000 mm 2,6 UV-I 314 W/m 12,8 C 16,9 C 8,0 km/h (2 Bft) 100,00 %
03.07.2016 10:56 16,9 C 78 % 1020,4 hPa 0,0 l/m 6,2 km/h (2 Bft) W 259 0 min 0,000 mm 2,4 UV-I 259 W/m 13,0 C 16,9 C 9,7 km/h (2 Bft) 95,74 %
03.07.2016 10:58 16,9 C 78 % 1020,3 hPa 0,0 l/m 4,6 km/h (1 Bft) W-SW 258 0 min 0,000 mm 2,5 UV-I 257 W/m 13,0 C 16,9 C 6,4 km/h (2 Bft) 100,00 %
03.07.2016 11:00 16,8 C 77 % 1020,3 hPa 0,0 l/m 3,9 km/h (1 Bft) W-NW 284 0 min 0,229 mm 2,8 UV-I 288 W/m 12,7 C 16,8 C 6,4 km/h (2 Bft) 97,87 %
03.07.2016 11:02 16,8 C 77 % 1020,3 hPa 0,0 l/m 5,1 km/h (1 Bft) W 259 0 min 0,000 mm 3,2 UV-I 353 W/m 12,7 C 16,8 C 11,3 km/h (2 Bft) 100,00 %
03.07.2016 11:04 16,9 C 79 % 1020,4 hPa 0,0 l/m 10,1 km/h (2 Bft) W-SW 242 2 min 0,000 mm 3,6 UV-I 491 W/m 13,2 C 15,2 C 19,3 km/h (3 Bft) 98,00 %
03.07.2016 11:06 17,1 C 77 % 1020,4 hPa 0,0 l/m 4,0 km/h (1 Bft) W-SW 244 2 min 0,000 mm 4,1 UV-I 554 W/m 13,0 C 17,1 C 11,3 km/h (2 Bft) 97,87 %
03.07.2016 11:08 17,3 C 75 % 1020,4 hPa 0,0 l/m 8,1 km/h (2 Bft) W-SW 251 2 min 0,000 mm 3,5 UV-I 446 W/m 12,8 C 16,5 C 11,3 km/h (2 Bft) 97,37 %
03.07.2016 11:10 17,4 C 77 % 1020,3 hPa 0,0 l/m 4,1 km/h (1 Bft) SW 225 2 min 0,000 mm 3,6 UV-I 449 W/m 13,3 C 17,4 C 8,0 km/h (2 Bft) 97,87 %
03.07.2016 11:12 17,5 C 75 % 1020,3 hPa 0,0 l/m 8,3 km/h (2 Bft) S-SW 211 2 min 0,000 mm 4,6 UV-I 487 W/m 13,0 C 16,6 C 12,9 km/h (3 Bft) 97,87 %
03.07.2016 11:14 17,6 C 78 % 1020,3 hPa 0,0 l/m 7,5 km/h (2 Bft) W-SW 242 2 min 0,000 mm 4,9 UV-I 520 W/m 13,7 C 17,1 C 14,5 km/h (3 Bft) 97,87 %
03.07.2016 11:16 17,8 C 75 % 1020,3 hPa 0,0 l/m 7,3 km/h (2 Bft) NW 312 2 min 0,000 mm 5,9 UV-I 892 W/m 13,3 C 17,4 C 12,9 km/h (3 Bft) 95,74 %
03.07.2016 11:18 18,0 C 74 % 1020,3 hPa 0,0 l/m 3,8 km/h (1 Bft) W 262 2 min 0,000 mm 5,0 UV-I 868 W/m 13,3 C 18,0 C 8,0 km/h (2 Bft) 97,87 %
03.07.2016 11:20 18,0 C 73 % 1020,3 hPa 0,0 l/m 6,6 km/h (2 Bft) S-SW 209 2 min 0,000 mm 4,2 UV-I 530 W/m 13,1 C 17,9 C 9,7 km/h (2 Bft) 97,87 %
03.07.2016 11:22 17,9 C 74 % 1020,3 hPa 0,0 l/m 2,5 km/h (1 Bft) W-NW 289 0 min 0,000 mm 3,6 UV-I 438 W/m 13,2 C 17,9 C 6,4 km/h (2 Bft) 94,34 %
03.07.2016 11:24 17,9 C 75 % 1020,3 hPa 0,0 l/m 4,4 km/h (1 Bft) W 259 0 min 0,000 mm 2,2 UV-I 272 W/m 13,4 C 17,9 C 8,0 km/h (2 Bft) 95,74 %
03.07.2016 11:26 17,8 C 73 % 1020,3 hPa 0,0 l/m 4,9 km/h (1 Bft) S-SW 201 0 min 0,000 mm 1,8 UV-I 229 W/m 12,9 C 17,8 C 8,0 km/h (2 Bft) 97,87 %
03.07.2016 11:28 17,6 C 73 % 1020,3 hPa 0,0 l/m 10,1 km/h (2 Bft) W-SW 246 0 min 0,000 mm 1,9 UV-I 229 W/m 12,7 C 16,0 C 20,9 km/h (4 Bft) 97,87 %
03.07.2016 11:30 17,4 C 73 % 1020,3 hPa 0,0 l/m 10,4 km/h (2 Bft) S-SW 207 0 min 0,000 mm 2,2 UV-I 264 W/m 12,5 C 15,6 C 16,1 km/h (3 Bft) 97,22 %
03.07.2016 11:32 17,4 C 73 % 1020,3 hPa 0,0 l/m 11,8 km/h (2 Bft) S 190 0 min 0,000 mm 2,6 UV-I 320 W/m 12,5 C 15,1 C 19,3 km/h (3 Bft) 98,00 %
03.07.2016 11:34 17,3 C 73 % 1020,3 hPa 0,0 l/m 7,5 km/h (2 Bft) W-SW 238 0 min 0,000 mm 3,0 UV-I 379 W/m 12,4 C 16,8 C 16,1 km/h (3 Bft) 97,87 %
03.07.2016 11:36 17,4 C 71 % 1020,3 hPa 0,0 l/m 8,9 km/h (2 Bft) W 268 0 min 0,000 mm 3,1 UV-I 458 W/m 12,1 C 16,2 C 12,9 km/h (3 Bft) 98,00 %
03.07.2016 11:38 17,5 C 73 % 1020,3 hPa 0,0 l/m 8,3 km/h (2 Bft) W 263 0 min 0,000 mm 2,2 UV-I 282 W/m 12,6 C 16,6 C 14,5 km/h (3 Bft) 93,62 %
03.07.2016 11:40 17,6 C 72 % 1020,2 hPa 0,0 l/m 5,2 km/h (1 Bft) W-SW 237 0 min 0,000 mm 2,2 UV-I 270 W/m 12,5 C 17,6 C 9,7 km/h (2 Bft) 97,87 %
03.07.2016 11:42 17,6 C 74 % 1020,2 hPa 0,0 l/m 7,3 km/h (2 Bft) W-SW 251 0 min 0,000 mm 2,2 UV-I 263 W/m 12,9 C 17,2 C 14,5 km/h (3 Bft) 95,74 %
03.07.2016 11:44 17,6 C 72 % 1020,3 hPa 0,0 l/m 7,6 km/h (2 Bft) W-SW 256 0 min 0,000 mm 2,1 UV-I 249 W/m 12,5 C 17,0 C 12,9 km/h (3 Bft) 97,87 %
03.07.2016 11:46 17,5 C 70 % 1020,3 hPa 0,0 l/m 11,5 km/h (2 Bft) SW 236 0 min 0,000 mm 1,9 UV-I 229 W/m 12,0 C 15,3 C 16,1 km/h (3 Bft) 100,00 %
03.07.2016 11:48 17,4 C 69 % 1020,3 hPa 0,0 l/m 8,1 km/h (2 Bft) W-SW 238 0 min 0,000 mm 1,7 UV-I 212 W/m 11,7 C 16,6 C 14,5 km/h (3 Bft) 100,00 %
03.07.2016 11:50 17,3 C 71 % 1020,3 hPa 0,0 l/m 7,6 km/h (2 Bft) W-SW 254 0 min 0,000 mm 1,5 UV-I 184 W/m 12,0 C 16,7 C 11,3 km/h (2 Bft) 98,00 %
03.07.2016 11:52 17,3 C 72 % 1020,3 hPa 0,0 l/m 5,3 km/h (1 Bft) SW 218 0 min 0,000 mm 1,3 UV-I 163 W/m 12,2 C 17,3 C 11,3 km/h (2 Bft) 100,00 %
03.07.2016 11:54 17,2 C 73 % 1020,2 hPa 0,0 l/m 4,1 km/h (1 Bft) W 279 0 min 0,000 mm 1,5 UV-I 184 W/m 12,3 C 17,2 C 9,7 km/h (2 Bft) 100,00 %
03.07.2016 11:56 17,2 C 74 % 1020,2 hPa 0,0 l/m 3,4 km/h (1 Bft) W-SW 244 0 min 0,000 mm 2,2 UV-I 260 W/m 12,5 C 17,2 C 8,0 km/h (2 Bft) 100,00 %
03.07.2016 11:58 17,3 C 74 % 1020,2 hPa 0,0 l/m 5,3 km/h (1 Bft) SW 220 0 min 0,000 mm 3,3 UV-I 384 W/m 12,6 C 17,3 C 9,7 km/h (2 Bft) 97,87 %
03.07.2016 12:00 17,6 C 73 % 1020,2 hPa 0,0 l/m 7,5 km/h (2 Bft) W 267 0 min 0,000 mm 4,3 UV-I 410 W/m 12,7 C 17,1 C 12,9 km/h (3 Bft) 100,00 %
03.07.2016 12:02 17,7 C 72 % 1020,2 hPa 0,0 l/m 7,1 km/h (2 Bft) W-SW 238 0 min 0,228 mm 3,5 UV-I 386 W/m 12,6 C 17,4 C 11,3 km/h (2 Bft) 100,00 %
03.07.2016 12:04 17,7 C 71 % 1020,2 hPa 0,0 l/m 8,1 km/h (2 Bft) W-SW 245 0 min 0,000 mm 3,7 UV-I 395 W/m 12,4 C 16,9 C 14,5 km/h (3 Bft) 95,74 %
03.07.2016 12:06 17,8 C 70 % 1020,3 hPa 0,0 l/m 6,8 km/h (2 Bft) W-SW 244 0 min 0,000 mm 4,0 UV-I 451 W/m 12,3 C 17,6 C 11,3 km/h (2 Bft) 100,00 %
03.07.2016 12:08 17,8 C 69 % 1020,3 hPa 0,0 l/m 7,7 km/h (2 Bft) SW 230 0 min 0,000 mm 3,9 UV-I 418 W/m 12,0 C 17,2 C 12,9 km/h (3 Bft) 100,00 %
03.07.2016 12:10 17,8 C 70 % 1020,3 hPa 0,0 l/m 11,1 km/h (2 Bft) S 178 0 min 0,000 mm 4,1 UV-I 436 W/m 12,3 C 15,8 C 16,1 km/h (3 Bft) 98,00 %
03.07.2016 12:12 17,8 C 69 % 1020,3 hPa 0,0 l/m 9,7 km/h (2 Bft) S-SO 166 0 min 0,000 mm 4,1 UV-I 467 W/m 12,0 C 16,3 C 17,7 km/h (3 Bft) 95,74 %
03.07.2016 12:14 17,8 C 68 % 1020,3 hPa 0,0 l/m 11,3 km/h (2 Bft) S 173 0 min 0,000 mm 3,7 UV-I 414 W/m 11,8 C 15,7 C 16,1 km/h (3 Bft) 95,74 %
03.07.2016 12:16 17,8 C 70 % 1020,3 hPa 0,0 l/m 7,3 km/h (2 Bft) W 266 0 min 0,000 mm 3,3 UV-I 374 W/m 12,3 C 17,4 C 11,3 km/h (2 Bft) 97,87 %
03.07.2016 12:18 17,9 C 73 % 1020,3 hPa 0,0 l/m 4,1 km/h (1 Bft) W-SW 253 0 min 0,000 mm 3,2 UV-I 362 W/m 13,0 C 17,9 C 8,0 km/h (2 Bft) 97,87 %
03.07.2016 12:20 18,0 C 72 % 1020,3 hPa 0,0 l/m 5,1 km/h (1 Bft) W-SW 250 0 min 0,000 mm 3,0 UV-I 337 W/m 12,9 C 18,0 C 11,3 km/h (2 Bft) 100,00 %
03.07.2016 12:22 18,1 C 71 % 1020,3 hPa 0,0 l/m 6,9 km/h (2 Bft) W-SW 250 0 min 0,000 mm 2,7 UV-I 302 W/m 12,8 C 17,9 C 11,3 km/h (2 Bft) 97,87 %
03.07.2016 12:24 18,1 C 71 % 1020,3 hPa 0,0 l/m 6,8 km/h (2 Bft) S-SW 194 0 min 0,000 mm 2,7 UV-I 296 W/m 12,8 C 17,9 C 12,9 km/h (3 Bft) 100,00 %
03.07.2016 12:26 18,0 C 69 % 1020,3 hPa 0,0 l/m 6,1 km/h (2 Bft) SW 229 0 min 0,000 mm 2,6 UV-I 289 W/m 12,2 C 18,0 C 8,0 km/h (2 Bft) 97,14 %
03.07.2016 12:28 17,9 C 70 % 1020,3 hPa 0,0 l/m 5,2 km/h (1 Bft) SW 236 0 min 0,000 mm 2,4 UV-I 267 W/m 12,3 C 17,9 C 8,0 km/h (2 Bft) 100,00 %
03.07.2016 12:30 17,9 C 72 % 1020,3 hPa 0,0 l/m 5,0 km/h (1 Bft) W-SW 242 0 min 0,000 mm 2,4 UV-I 266 W/m 12,8 C 17,9 C 8,0 km/h (2 Bft) 98,00 %
03.07.2016 12:32 17,9 C 70 % 1020,3 hPa 0,0 l/m 10,2 km/h (2 Bft) S-SW 195 0 min 0,000 mm 2,9 UV-I 312 W/m 12,3 C 16,2 C 17,7 km/h (3 Bft) 100,00 %
03.07.2016 12:34 17,9 C 70 % 1020,2 hPa 0,0 l/m 11,1 km/h (2 Bft) W 267 0 min 0,000 mm 3,3 UV-I 360 W/m 12,3 C 15,9 C 16,1 km/h (3 Bft) 100,00 %
03.07.2016 12:36 17,9 C 69 % 1020,2 hPa 0,0 l/m 6,7 km/h (2 Bft) SW 235 0 min 0,000 mm 3,3 UV-I 368 W/m 12,1 C 17,8 C 14,5 km/h (3 Bft) 97,87 %
03.07.2016 12:38 17,9 C 72 % 1020,2 hPa 0,0 l/m 5,1 km/h (1 Bft) W-SW 254 0 min 0,000 mm 3,1 UV-I 344 W/m 12,8 C 17,9 C 9,7 km/h (2 Bft) 100,00 %
03.07.2016 12:40 18,1 C 71 % 1020,2 hPa 0,0 l/m 7,2 km/h (2 Bft) W 259 0 min 0,000 mm 2,8 UV-I 319 W/m 12,8 C 17,7 C 12,9 km/h (3 Bft) 100,00 %
03.07.2016 12:42 18,1 C 71 % 1020,1 hPa 0,0 l/m 4,3 km/h (1 Bft) W 271 0 min 0,000 mm 2,5 UV-I 292 W/m 12,8 C 18,1 C 8,0 km/h (2 Bft) 100,00 %
03.07.2016 12:44 18,0 C 69 % 1020,1 hPa 0,0 l/m 7,8 km/h (2 Bft) SW 224 0 min 0,000 mm 2,2 UV-I 254 W/m 12,2 C 17,3 C 12,9 km/h (3 Bft) 98,00 %
03.07.2016 12:46 17,9 C 68 % 1020,1 hPa 0,0 l/m 10,8 km/h (2 Bft) SW 234 0 min 0,000 mm 1,9 UV-I 228 W/m 11,9 C 16,0 C 17,7 km/h (3 Bft) 100,00 %
03.07.2016 12:48 17,8 C 69 % 1020,1 hPa 0,0 l/m 8,4 km/h (2 Bft) SW 221 0 min 0,000 mm 1,9 UV-I 227 W/m 12,0 C 16,9 C 14,5 km/h (3 Bft) 97,96 %
03.07.2016 12:50 17,7 C 69 % 1020,1 hPa 0,0 l/m 8,3 km/h (2 Bft) W-SW 238 0 min 0,000 mm 2,0 UV-I 226 W/m 11,9 C 16,8 C 12,9 km/h (3 Bft) 100,00 %
03.07.2016 12:52 17,7 C 69 % 1020,1 hPa 0,0 l/m 7,3 km/h (2 Bft) W-SW 240 0 min 0,000 mm 1,6 UV-I 193 W/m 11,9 C 17,3 C 14,5 km/h (3 Bft) 100,00 %
03.07.2016 12:54 17,7 C 70 % 1020,1 hPa 0,0 l/m 9,8 km/h (2 Bft) SW 216 0 min 0,000 mm 1,4 UV-I 162 W/m 12,2 C 16,2 C 14,5 km/h (3 Bft) 100,00 %
03.07.2016 12:56 17,6 C 70 % 1020,1 hPa 0,0 l/m 9,3 km/h (2 Bft) W-SW 257 0 min 0,000 mm 1,2 UV-I 144 W/m 12,1 C 16,3 C 14,5 km/h (3 Bft) 95,74 %
03.07.2016 12:58 17,6 C 72 % 1020,1 hPa 0,0 l/m 6,6 km/h (2 Bft) W 259 0 min 0,000 mm 1,1 UV-I 133 W/m 12,5 C 17,5 C 9,7 km/h (2 Bft) 100,00 %
03.07.2016 13:00 17,6 C 73 % 1020,1 hPa 0,0 l/m 5,3 km/h (1 Bft) S-SW 212 0 min 0,203 mm 1,2 UV-I 146 W/m 12,7 C 17,6 C 9,7 km/h (2 Bft) 100,00 %
03.07.2016 13:02 17,6 C 72 % 1020,1 hPa 0,0 l/m 6,4 km/h (2 Bft) SW 217 0 min 0,000 mm 1,5 UV-I 174 W/m 12,5 C 17,6 C 11,3 km/h (2 Bft) 100,00 %
03.07.2016 13:04 17,6 C 72 % 1020,1 hPa 0,0 l/m 6,0 km/h (2 Bft) SW 225 0 min 0,000 mm 1,8 UV-I 206 W/m 12,5 C 17,6 C 17,7 km/h (3 Bft) 100,00 %
03.07.2016 13:06 17,6 C 71 % 1020,0 hPa 0,0 l/m 13,1 km/h (3 Bft) SW 234 0 min 0,000 mm 2,1 UV-I 236 W/m 12,3 C 14,9 C 20,9 km/h (4 Bft) 100,00 %
03.07.2016 13:08 17,7 C 72 % 1020,1 hPa 0,0 l/m 6,5 km/h (2 Bft) W-SW 249 0 min 0,000 mm 2,3 UV-I 262 W/m 12,6 C 17,7 C 12,9 km/h (3 Bft) 98,00 %
03.07.2016 13:10 17,8 C 70 % 1020,0 hPa 0,0 l/m 8,3 km/h (2 Bft) SW 227 0 min 0,000 mm 2,7 UV-I 307 W/m 12,3 C 16,9 C 20,9 km/h (4 Bft) 96,00 %
03.07.2016 13:12 17,8 C 70 % 1020,0 hPa 0,0 l/m 8,9 km/h (2 Bft) S-SW 212 0 min 0,000 mm 3,2 UV-I 356 W/m 12,3 C 16,7 C 16,1 km/h (3 Bft) 97,87 %
03.07.2016 13:14 17,9 C 68 % 1020,0 hPa 0,0 l/m 6,3 km/h (2 Bft) W-SW 246 0 min 0,000 mm 3,5 UV-I 388 W/m 11,9 C 17,9 C 11,3 km/h (2 Bft) 97,87 %
03.07.2016 13:16 18,1 C 68 % 1020,0 hPa 0,0 l/m 8,4 km/h (2 Bft) S-SW 192 0 min 0,000 mm 3,9 UV-I 417 W/m 12,1 C 17,2 C 12,9 km/h (3 Bft) 95,74 %
03.07.2016 13:18 18,1 C 68 % 1020,0 hPa 0,0 l/m 4,1 km/h (1 Bft) S-SW 213 0 min 0,000 mm 3,5 UV-I 398 W/m 12,1 C 18,1 C 9,7 km/h (2 Bft) 98,00 %
03.07.2016 13:20 18,2 C 66 % 1019,9 hPa 0,0 l/m 9,0 km/h (2 Bft) W-SW 237 0 min 0,000 mm 3,0 UV-I 341 W/m 11,7 C 17,0 C 12,9 km/h (3 Bft) 97,14 %
03.07.2016 13:22 18,2 C 66 % 1019,9 hPa 0,0 l/m 9,1 km/h (2 Bft) W-SW 255 0 min 0,000 mm 2,6 UV-I 305 W/m 11,7 C 17,0 C 12,9 km/h (3 Bft) 98,00 %
03.07.2016 13:24 18,1 C 66 % 1019,9 hPa 0,0 l/m 7,5 km/h (2 Bft) W-NW 284 0 min 0,000 mm 2,2 UV-I 263 W/m 11,6 C 17,6 C 14,5 km/h (3 Bft) 92,00 %
03.07.2016 13:26 18,1 C 66 % 1019,9 hPa 0,0 l/m 4,1 km/h (1 Bft) W 265 0 min 0,000 mm 1,9 UV-I 224 W/m 11,6 C 18,1 C 11,3 km/h (2 Bft) 95,65 %
03.07.2016 13:28 18,0 C 68 % 1019,9 hPa 0,0 l/m 8,0 km/h (2 Bft) W-SW 247 0 min 0,000 mm 1,6 UV-I 191 W/m 12,0 C 17,3 C 12,9 km/h (3 Bft) 94,44 %
03.07.2016 13:30 17,9 C 67 % 1019,9 hPa 0,0 l/m 4,5 km/h (1 Bft) W 259 0 min 0,000 mm 1,3 UV-I 155 W/m 11,7 C 17,9 C 11,3 km/h (2 Bft) 96,77 %
03.07.2016 13:32 17,8 C 68 % 1019,8 hPa 0,0 l/m 2,4 km/h (1 Bft) W 267 0 min 0,000 mm 1,0 UV-I 123 W/m 11,8 C 17,8 C 4,8 km/h (1 Bft) 97,87 %
03.07.2016 13:34 17,8 C 67 % 1019,8 hPa 0,0 l/m 6,7 km/h (2 Bft) W-SW 258 0 min 0,000 mm 0,8 UV-I 105 W/m 11,6 C 17,7 C 11,3 km/h (2 Bft) 97,37 %
03.07.2016 13:36 17,8 C 67 % 1019,9 hPa 0,0 l/m 6,0 km/h (2 Bft) SW 228 0 min 0,000 mm 0,7 UV-I 86 W/m 11,6 C 17,8 C 11,3 km/h (2 Bft) 94,34 %
03.07.2016 13:38 17,7 C 69 % 1019,8 hPa 0,0 l/m 8,6 km/h (2 Bft) W-SW 240 0 min 0,000 mm 0,7 UV-I 90 W/m 11,9 C 16,7 C 14,5 km/h (3 Bft) 95,74 %
03.07.2016 13:40 17,7 C 69 % 1019,8 hPa 0,0 l/m 7,8 km/h (2 Bft) S-SW 196 0 min 0,000 mm 1,0 UV-I 116 W/m 11,9 C 17,0 C 12,9 km/h (3 Bft) 91,49 %
03.07.2016 13:42 17,7 C 68 % 1019,8 hPa 0,0 l/m 13,3 km/h (3 Bft) SW 229 0 min 0,000 mm 1,3 UV-I 150 W/m 11,7 C 15,0 C 20,9 km/h (4 Bft) 96,00 %
03.07.2016 13:44 17,7 C 69 % 1019,8 hPa 0,0 l/m 11,2 km/h (2 Bft) W-SW 240 0 min 0,000 mm 1,5 UV-I 171 W/m 11,9 C 15,7 C 16,1 km/h (3 Bft) 100,00 %
03.07.2016 13:46 17,7 C 69 % 1019,8 hPa 0,0 l/m 10,6 km/h (2 Bft) SW 233 0 min 0,000 mm 1,6 UV-I 182 W/m 11,9 C 15,9 C 17,7 km/h (3 Bft) 95,74 %
03.07.2016 13:48 17,7 C 71 % 1019,7 hPa 0,0 l/m 6,3 km/h (2 Bft) SW 229 0 min 0,000 mm 1,7 UV-I 191 W/m 12,4 C 17,7 C 9,7 km/h (2 Bft) 100,00 %
03.07.2016 13:50 17,7 C 72 % 1019,7 hPa 0,0 l/m 1,5 km/h (1 Bft) W-SW 237 0 min 0,000 mm 1,7 UV-I 199 W/m 12,6 C 17,7 C 6,4 km/h (2 Bft) 100,00 %
03.07.2016 13:52 17,7 C 72 % 1019,7 hPa 0,0 l/m 0,1 km/h (0 Bft) W-SW 237 0 min 0,000 mm 2,0 UV-I 222 W/m 12,6 C 17,7 C 1,6 km/h (1 Bft) 100,00 %
03.07.2016 13:54 17,8 C 72 % 1019,7 hPa 0,0 l/m 1,5 km/h (1 Bft) W-SW 237 0 min 0,000 mm 2,1 UV-I 236 W/m 12,7 C 17,8 C 3,2 km/h (1 Bft) 97,87 %
03.07.2016 13:56 17,8 C 70 % 1019,7 hPa 0,0 l/m 2,1 km/h (1 Bft) W-SW 254 0 min 0,000 mm 2,0 UV-I 230 W/m 12,3 C 17,8 C 4,8 km/h (1 Bft) 97,87 %
03.07.2016 13:58 17,8 C 72 % 1019,7 hPa 0,0 l/m 0,4 km/h (0 Bft) W-NW 288 0 min 0,000 mm 1,9 UV-I 219 W/m 12,7 C 17,8 C 1,6 km/h (1 Bft) 100,00 %
03.07.2016 14:00 17,8 C 73 % 1019,7 hPa 0,0 l/m 1,4 km/h (1 Bft) NW 317 0 min 0,153 mm 1,9 UV-I 217 W/m 12,9 C 17,8 C 3,2 km/h (1 Bft) 95,74 %
03.07.2016 14:02 17,8 C 71 % 1019,7 hPa 0,0 l/m 1,3 km/h (1 Bft) N-NW 340 0 min 0,000 mm 2,1 UV-I 236 W/m 12,5 C 17,8 C 4,8 km/h (1 Bft) 97,87 %
03.07.2016 14:04 17,8 C 72 % 1019,8 hPa 0,0 l/m 1,1 km/h (1 Bft) N-NW 340 0 min 0,000 mm 2,4 UV-I 270 W/m 12,7 C 17,8 C 3,2 km/h (1 Bft) 100,00 %
03.07.2016 14:06 17,9 C 69 % 1019,7 hPa 0,0 l/m 1,6 km/h (1 Bft) N-NW 347 0 min 0,000 mm 2,8 UV-I 317 W/m 12,1 C 17,9 C 3,2 km/h (1 Bft) 100,00 %
03.07.2016 14:08 18,0 C 73 % 1019,7 hPa 0,0 l/m 0,9 km/h (0 Bft) NW 316 0 min 0,000 mm 3,4 UV-I 367 W/m 13,1 C 18,0 C 3,2 km/h (1 Bft) 95,83 %
03.07.2016 14:10 18,1 C 71 % 1019,7 hPa 0,0 l/m 1,3 km/h (1 Bft) NW 316 0 min 0,000 mm 3,8 UV-I 416 W/m 12,8 C 18,1 C 4,8 km/h (1 Bft) 95,74 %
03.07.2016 14:12 18,4 C 74 % 1019,6 hPa 0,0 l/m 0,4 km/h (0 Bft) NW 316 2 min 0,000 mm 4,6 UV-I 499 W/m 13,7 C 18,4 C 3,2 km/h (1 Bft) 100,00 %
03.07.2016 14:14 18,7 C 71 % 1019,6 hPa 0,0 l/m 1,7 km/h (1 Bft) N-NW 341 2 min 0,000 mm 5,5 UV-I 617 W/m 13,3 C 18,7 C 4,8 km/h (1 Bft) 95,74 %
03.07.2016 14:16 18,8 C 70 % 1019,6 hPa 0,0 l/m 2,5 km/h (1 Bft) NW 313 2 min 0,000 mm 5,1 UV-I 596 W/m 13,2 C 18,8 C 6,4 km/h (2 Bft) 97,87 %
03.07.2016 14:18 19,0 C 68 % 1019,6 hPa 0,0 l/m 2,3 km/h (1 Bft) S 174 2 min 0,000 mm 5,5 UV-I 599 W/m 13,0 C 19,0 C 4,8 km/h (1 Bft) 97,37 %
03.07.2016 14:20 19,2 C 69 % 1019,6 hPa 0,0 l/m 5,2 km/h (1 Bft) SW 223 2 min 0,000 mm 5,1 UV-I 607 W/m 13,4 C 19,2 C 12,9 km/h (3 Bft) 97,87 %
03.07.2016 14:22 19,2 C 62 % 1019,6 hPa 0,0 l/m 10,1 km/h (2 Bft) SW 234 2 min 0,000 mm 4,7 UV-I 525 W/m 11,7 C 17,7 C 17,7 km/h (3 Bft) 100,00 %
03.07.2016 14:24 19,0 C 63 % 1019,5 hPa 0,0 l/m 9,0 km/h (2 Bft) S-SW 213 2 min 0,000 mm 4,5 UV-I 502 W/m 11,8 C 17,9 C 14,5 km/h (3 Bft) 98,00 %
03.07.2016 14:26 18,9 C 62 % 1019,5 hPa 0,0 l/m 7,4 km/h (2 Bft) S-SW 198 2 min 0,000 mm 4,6 UV-I 540 W/m 11,5 C 18,5 C 11,3 km/h (2 Bft) 97,87 %
03.07.2016 14:28 18,9 C 64 % 1019,5 hPa 0,0 l/m 8,2 km/h (2 Bft) W-SW 253 2 min 0,000 mm 5,0 UV-I 581 W/m 11,9 C 18,1 C 14,5 km/h (3 Bft) 97,87 %
03.07.2016 14:30 19,0 C 65 % 1019,5 hPa 0,0 l/m 5,9 km/h (2 Bft) SW 218 2 min 0,000 mm 5,5 UV-I 613 W/m 12,3 C 19,0 C 12,9 km/h (3 Bft) 100,00 %
03.07.2016 14:32 19,2 C 63 % 1019,5 hPa 0,0 l/m 10,9 km/h (2 Bft) W 261 2 min 0,000 mm 5,4 UV-I 616 W/m 12,0 C 17,5 C 16,1 km/h (3 Bft) 100,00 %
03.07.2016 14:34 19,3 C 63 % 1019,5 hPa 0,0 l/m 8,6 km/h (2 Bft) W-SW 248 2 min 0,000 mm 5,7 UV-I 621 W/m 12,1 C 18,4 C 12,9 km/h (3 Bft) 100,00 %
03.07.2016 14:36 19,2 C 62 % 1019,4 hPa 0,0 l/m 7,1 km/h (2 Bft) SW 236 2 min 0,000 mm 4,1 UV-I 464 W/m 11,7 C 18,9 C 12,9 km/h (3 Bft) 100,00 %
03.07.2016 14:38 19,2 C 63 % 1019,5 hPa 0,0 l/m 6,1 km/h (2 Bft) W 265 0 min 0,000 mm 3,9 UV-I 462 W/m 12,0 C 19,2 C 11,3 km/h (2 Bft) 100,00 %
03.07.2016 14:40 19,3 C 61 % 1019,4 hPa 0,0 l/m 8,1 km/h (2 Bft) SW 231 2 min 0,000 mm 4,3 UV-I 476 W/m 11,6 C 18,6 C 16,1 km/h (3 Bft) 100,00 %
03.07.2016 14:42 19,3 C 65 % 1019,4 hPa 0,0 l/m 4,4 km/h (1 Bft) W 259 2 min 0,000 mm 4,1 UV-I 482 W/m 12,6 C 19,3 C 8,0 km/h (2 Bft) 100,00 %
03.07.2016 14:44 19,2 C 61 % 1019,4 hPa 0,0 l/m 5,6 km/h (1 Bft) S 171 2 min 0,000 mm 4,0 UV-I 465 W/m 11,5 C 19,2 C 11,3 km/h (2 Bft) 100,00 %
03.07.2016 14:46 19,1 C 62 % 1019,4 hPa 0,0 l/m 9,1 km/h (2 Bft) W 264 2 min 0,000 mm 4,0 UV-I 471 W/m 11,6 C 18,0 C 14,5 km/h (3 Bft) 97,87 %
03.07.2016 14:48 19,1 C 61 % 1019,4 hPa 0,0 l/m 6,9 km/h (2 Bft) W-SW 244 2 min 0,000 mm 4,1 UV-I 497 W/m 11,4 C 18,9 C 12,9 km/h (3 Bft) 100,00 %
03.07.2016 14:50 19,2 C 63 % 1019,4 hPa 0,0 l/m 5,3 km/h (1 Bft) SW 230 0 min 0,000 mm 3,8 UV-I 442 W/m 12,0 C 19,2 C 11,3 km/h (2 Bft) 100,00 %
03.07.2016 14:52 19,1 C 62 % 1019,4 hPa 0,0 l/m 5,8 km/h (2 Bft) SW 232 0 min 0,000 mm 3,7 UV-I 430 W/m 11,6 C 19,1 C 11,3 km/h (2 Bft) 97,87 %
03.07.2016 14:54 19,1 C 62 % 1019,4 hPa 0,0 l/m 4,5 km/h (1 Bft) S-SW 208 0 min 0,000 mm 3,7 UV-I 437 W/m 11,6 C 19,1 C 8,0 km/h (2 Bft) 100,00 %
03.07.2016 14:56 19,2 C 64 % 1019,3 hPa 0,0 l/m 3,5 km/h (1 Bft) S 186 2 min 0,000 mm 4,1 UV-I 516 W/m 12,2 C 19,2 C 6,4 km/h (2 Bft) 100,00 %
03.07.2016 14:58 19,3 C 62 % 1019,3 hPa 0,0 l/m 8,8 km/h (2 Bft) SW 215 2 min 0,000 mm 4,4 UV-I 548 W/m 11,8 C 18,3 C 17,7 km/h (3 Bft) 97,87 %
03.07.2016 15:00 19,2 C 61 % 1019,3 hPa 0,0 l/m 9,9 km/h (2 Bft) S-SW 209 2 min 0,305 mm 4,4 UV-I 526 W/m 11,5 C 17,8 C 16,1 km/h (3 Bft) 100,00 %
03.07.2016 15:02 19,3 C 61 % 1019,3 hPa 0,0 l/m 10,3 km/h (2 Bft) W-SW 244 2 min 0,000 mm 4,6 UV-I 544 W/m 11,6 C 17,8 C 16,1 km/h (3 Bft) 98,00 %
03.07.2016 15:04 19,3 C 61 % 1019,2 hPa 0,0 l/m 5,8 km/h (2 Bft) S-SW 195 2 min 0,000 mm 4,7 UV-I 547 W/m 11,6 C 19,3 C 12,9 km/h (3 Bft) 100,00 %
03.07.2016 15:06 19,4 C 61 % 1019,3 hPa 0,0 l/m 6,0 km/h (2 Bft) S-SW 200 2 min 0,000 mm 5,5 UV-I 571 W/m 11,7 C 19,4 C 9,7 km/h (2 Bft) 98,00 %
03.07.2016 15:08 19,6 C 62 % 1019,3 hPa 0,0 l/m 6,1 km/h (2 Bft) S 170 2 min 0,000 mm 5,5 UV-I 663 W/m 12,1 C 19,6 C 14,5 km/h (3 Bft) 95,74 %
03.07.2016 15:10 19,6 C 62 % 1019,3 hPa 0,0 l/m 8,6 km/h (2 Bft) SW 234 2 min 0,000 mm 5,8 UV-I 808 W/m 12,1 C 18,7 C 12,9 km/h (3 Bft) 97,87 %
03.07.2016 15:12 19,8 C 59 % 1019,3 hPa 0,0 l/m 8,1 km/h (2 Bft) W-SW 240 2 min 0,000 mm 6,1 UV-I 796 W/m 11,6 C 19,1 C 14,5 km/h (3 Bft) 97,87 %
03.07.2016 15:14 20,1 C 60 % 1019,3 hPa 0,0 l/m 8,2 km/h (2 Bft) S-SO 165 2 min 0,000 mm 6,0 UV-I 868 W/m 12,1 C 19,4 C 12,9 km/h (3 Bft) 97,87 %
03.07.2016 15:16 20,1 C 54 % 1019,2 hPa 0,0 l/m 8,1 km/h (2 Bft) SW 225 2 min 0,000 mm 5,9 UV-I 855 W/m 10,5 C 19,4 C 16,1 km/h (3 Bft) 92,68 %
03.07.2016 15:18 20,1 C 60 % 1019,3 hPa 0,0 l/m 11,0 km/h (2 Bft) W 260 2 min 0,000 mm 5,9 UV-I 867 W/m 12,1 C 18,4 C 17,7 km/h (3 Bft) 96,00 %
03.07.2016 15:20 20,2 C 57 % 1019,3 hPa 0,0 l/m 9,5 km/h (2 Bft) W-SW 257 2 min 0,000 mm 5,8 UV-I 876 W/m 11,4 C 19,0 C 17,7 km/h (3 Bft) 97,87 %
03.07.2016 15:22 20,3 C 56 % 1019,2 hPa 0,0 l/m 6,7 km/h (2 Bft) S 189 2 min 0,000 mm 5,7 UV-I 883 W/m 11,2 C 20,2 C 12,9 km/h (3 Bft) 97,87 %
03.07.2016 15:24 20,1 C 59 % 1019,3 hPa 0,0 l/m 10,8 km/h (2 Bft) S-SW 195 2 min 0,000 mm 3,3 UV-I 464 W/m 11,8 C 18,5 C 22,5 km/h (4 Bft) 95,83 %
03.07.2016 15:26 19,8 C 56 % 1019,3 hPa 0,0 l/m 12,2 km/h (2 Bft) W-SW 237 0 min 0,000 mm 4,2 UV-I 284 W/m 10,8 C 17,7 C 20,9 km/h (4 Bft) 97,87 %
03.07.2016 15:28 19,8 C 55 % 1019,3 hPa 0,0 l/m 9,9 km/h (2 Bft) S-SW 195 2 min 0,000 mm 5,6 UV-I 874 W/m 10,5 C 18,5 C 14,5 km/h (3 Bft) 97,87 %
03.07.2016 15:30 19,8 C 60 % 1019,3 hPa 0,0 l/m 11,9 km/h (2 Bft) S 191 2 min 0,000 mm 4,8 UV-I 947 W/m 11,8 C 17,8 C 16,1 km/h (3 Bft) 98,00 %
03.07.2016 15:32 19,8 C 54 % 1019,2 hPa 0,0 l/m 4,3 km/h (1 Bft) S 191 2 min 0,000 mm 4,8 UV-I 949 W/m 10,2 C 19,8 C 9,7 km/h (2 Bft) 98,00 %
03.07.2016 15:34 19,7 C 58 % 1019,2 hPa 0,0 l/m 9,3 km/h (2 Bft) S-SW 212 0 min 0,000 mm 3,6 UV-I 290 W/m 11,2 C 18,6 C 16,1 km/h (3 Bft) 97,87 %
03.07.2016 15:36 19,6 C 59 % 1019,2 hPa 0,0 l/m 9,5 km/h (2 Bft) S-SW 199 0 min 0,000 mm 2,8 UV-I 253 W/m 11,4 C 18,4 C 16,1 km/h (3 Bft) 95,74 %
03.07.2016 15:38 19,4 C 59 % 1019,2 hPa 0,0 l/m 9,6 km/h (2 Bft) SW 228 0 min 0,000 mm 2,8 UV-I 285 W/m 11,2 C 18,1 C 12,9 km/h (3 Bft) 97,37 %
03.07.2016 15:40 19,4 C 62 % 1019,2 hPa 0,0 l/m 9,9 km/h (2 Bft) S-SW 201 0 min 0,000 mm 2,9 UV-I 302 W/m 11,9 C 18,0 C 12,9 km/h (3 Bft) 95,74 %
03.07.2016 15:42 19,4 C 59 % 1019,2 hPa 0,0 l/m 10,5 km/h (2 Bft) W-SW 239 0 min 0,000 mm 2,9 UV-I 298 W/m 11,2 C 17,8 C 14,5 km/h (3 Bft) 95,83 %
03.07.2016 15:44 19,3 C 60 % 1019,2 hPa 0,0 l/m 9,5 km/h (2 Bft) S-SW 201 0 min 0,000 mm 2,9 UV-I 305 W/m 11,3 C 18,0 C 14,5 km/h (3 Bft) 100,00 %
03.07.2016 15:46 19,3 C 59 % 1019,2 hPa 0,0 l/m 9,5 km/h (2 Bft) SW 218 0 min 0,000 mm 3,1 UV-I 328 W/m 11,1 C 18,0 C 12,9 km/h (3 Bft) 97,96 %
03.07.2016 15:48 19,3 C 62 % 1019,1 hPa 0,0 l/m 3,6 km/h (1 Bft) W-SW 253 0 min 0,000 mm 3,3 UV-I 378 W/m 11,8 C 19,3 C 8,0 km/h (2 Bft) 98,00 %
03.07.2016 15:50 19,5 C 64 % 1019,1 hPa 0,0 l/m 4,2 km/h (1 Bft) W 270 0 min 0,000 mm 3,2 UV-I 381 W/m 12,5 C 19,5 C 6,4 km/h (2 Bft) 100,00 %
03.07.2016 15:52 19,7 C 60 % 1019,1 hPa 0,0 l/m 5,1 km/h (1 Bft) S-SO 157 0 min 0,000 mm 3,2 UV-I 390 W/m 11,7 C 19,7 C 9,7 km/h (2 Bft) 97,87 %
03.07.2016 15:54 19,8 C 60 % 1019,1 hPa 0,0 l/m 5,7 km/h (1 Bft) S-SW 198 2 min 0,000 mm 4,0 UV-I 468 W/m 11,8 C 19,8 C 9,7 km/h (2 Bft) 97,87 %
03.07.2016 15:56 19,9 C 60 % 1019,0 hPa 0,0 l/m 7,1 km/h (2 Bft) S 190 2 min 0,000 mm 4,8 UV-I 471 W/m 11,9 C 19,6 C 16,1 km/h (3 Bft) 93,62 %
03.07.2016 15:58 20,1 C 60 % 1019,1 hPa 0,0 l/m 4,4 km/h (1 Bft) S-SW 202 2 min 0,000 mm 4,9 UV-I 533 W/m 12,1 C 20,1 C 6,4 km/h (2 Bft) 97,87 %
03.07.2016 16:00 20,3 C 61 % 1019,0 hPa 0,0 l/m 8,3 km/h (2 Bft) W-SW 242 2 min 0,381 mm 4,7 UV-I 836 W/m 12,5 C 19,6 C 11,3 km/h (2 Bft) 100,00 %
03.07.2016 16:02 20,4 C 57 % 1019,0 hPa 0,0 l/m 8,3 km/h (2 Bft) W-SW 238 2 min 0,000 mm 4,6 UV-I 791 W/m 11,6 C 19,7 C 12,9 km/h (3 Bft) 100,00 %
03.07.2016 16:04 20,4 C 60 % 1019,0 hPa 0,0 l/m 8,3 km/h (2 Bft) S 179 2 min 0,000 mm 4,5 UV-I 780 W/m 12,4 C 19,7 C 14,5 km/h (3 Bft) 100,00 %
03.07.2016 16:06 20,4 C 58 % 1018,9 hPa 0,0 l/m 5,8 km/h (2 Bft) S-SW 200 2 min 0,000 mm 4,5 UV-I 791 W/m 11,9 C 20,4 C 14,5 km/h (3 Bft) 97,87 %
03.07.2016 16:08 20,5 C 54 % 1019,0 hPa 0,0 l/m 8,4 km/h (2 Bft) S-SW 199 2 min 0,000 mm 4,5 UV-I 807 W/m 10,9 C 19,7 C 16,1 km/h (3 Bft) 100,00 %
03.07.2016 16:10 20,3 C 56 % 1019,0 hPa 0,0 l/m 8,0 km/h (2 Bft) S-SW 202 2 min 0,000 mm 4,0 UV-I 712 W/m 11,2 C 19,7 C 16,1 km/h (3 Bft) 97,37 %
03.07.2016 16:12 20,1 C 60 % 1019,0 hPa 0,0 l/m 5,5 km/h (1 Bft) SW 233 2 min 0,000 mm 3,3 UV-I 611 W/m 12,1 C 20,1 C 12,9 km/h (3 Bft) 100,00 %
03.07.2016 16:14 20,1 C 60 % 1019,0 hPa 0,0 l/m 6,1 km/h (2 Bft) W-SW 257 0 min 0,000 mm 3,4 UV-I 317 W/m 12,1 C 20,1 C 11,3 km/h (2 Bft) 100,00 %
03.07.2016 16:16 20,1 C 61 % 1019,0 hPa 0,0 l/m 9,2 km/h (2 Bft) S 191 0 min 0,000 mm 3,0 UV-I 366 W/m 12,3 C 19,0 C 14,5 km/h (3 Bft) 100,00 %
03.07.2016 16:18 19,9 C 61 % 1018,9 hPa 0,0 l/m 9,7 km/h (2 Bft) S-SO 160 0 min 0,000 mm 3,2 UV-I 337 W/m 12,2 C 18,6 C 17,7 km/h (3 Bft) 97,87 %
03.07.2016 16:20 19,8 C 59 % 1019,0 hPa 0,0 l/m 8,5 km/h (2 Bft) S-SW 198 0 min 0,000 mm 3,6 UV-I 279 W/m 11,6 C 18,9 C 16,1 km/h (3 Bft) 100,00 %
03.07.2016 16:22 20,0 C 61 % 1019,0 hPa 0,0 l/m 8,3 km/h (2 Bft) SW 228 2 min 0,000 mm 3,9 UV-I 540 W/m 12,2 C 19,2 C 14,5 km/h (3 Bft) 100,00 %
03.07.2016 16:24 20,1 C 57 % 1019,0 hPa 0,0 l/m 7,3 km/h (2 Bft) W-SW 240 2 min 0,000 mm 2,9 UV-I 534 W/m 11,3 C 19,7 C 11,3 km/h (2 Bft) 98,00 %
03.07.2016 16:26 20,1 C 59 % 1019,0 hPa 0,0 l/m 2,3 km/h (1 Bft) S-SW 207 0 min 0,000 mm 2,9 UV-I 274 W/m 11,8 C 20,1 C 4,8 km/h (1 Bft) 100,00 %
03.07.2016 16:28 20,2 C 61 % 1018,9 hPa 0,0 l/m 5,1 km/h (1 Bft) S-SW 201 2 min 0,000 mm 3,5 UV-I 583 W/m 12,4 C 20,2 C 9,7 km/h (2 Bft) 100,00 %
03.07.2016 16:30 20,4 C 57 % 1018,9 hPa 0,0 l/m 8,0 km/h (2 Bft) W-SW 241 2 min 0,000 mm 3,7 UV-I 686 W/m 11,6 C 19,8 C 14,5 km/h (3 Bft) 100,00 %
03.07.2016 16:32 20,3 C 58 % 1018,9 hPa 0,0 l/m 2,1 km/h (1 Bft) W-SW 241 2 min 0,000 mm 3,7 UV-I 702 W/m 11,8 C 20,3 C 4,8 km/h (1 Bft) 100,00 %
03.07.2016 16:34 20,4 C 58 % 1018,9 hPa 0,0 l/m 3,2 km/h (1 Bft) S-SW 198 2 min 0,000 mm 3,6 UV-I 688 W/m 11,9 C 20,4 C 9,7 km/h (2 Bft) 97,87 %
03.07.2016 16:36 20,4 C 59 % 1018,8 hPa 0,0 l/m 7,4 km/h (2 Bft) S 170 2 min 0,000 mm 3,6 UV-I 676 W/m 12,1 C 20,0 C 14,5 km/h (3 Bft) 100,00 %
03.07.2016 16:38 20,6 C 60 % 1018,8 hPa 0,0 l/m 7,4 km/h (2 Bft) W 261 2 min 0,000 mm 3,5 UV-I 663 W/m 12,6 C 20,2 C 17,7 km/h (3 Bft) 100,00 %
03.07.2016 16:40 20,8 C 59 % 1018,8 hPa 0,0 l/m 12,1 km/h (2 Bft) W-SW 250 2 min 0,000 mm 3,4 UV-I 656 W/m 12,5 C 18,9 C 17,7 km/h (3 Bft) 100,00 %
03.07.2016 16:42 20,8 C 60 % 1018,8 hPa 0,0 l/m 13,4 km/h (3 Bft) S-SW 198 2 min 0,000 mm 3,4 UV-I 650 W/m 12,7 C 18,6 C 19,3 km/h (3 Bft) 100,00 %
03.07.2016 16:44 20,9 C 60 % 1018,8 hPa 0,0 l/m 9,1 km/h (2 Bft) S-SW 213 2 min 0,000 mm 3,3 UV-I 648 W/m 12,8 C 19,9 C 14,5 km/h (3 Bft) 97,87 %
03.07.2016 16:46 20,9 C 58 % 1018,8 hPa 0,0 l/m 7,9 km/h (2 Bft) S-SW 207 2 min 0,000 mm 3,3 UV-I 652 W/m 12,3 C 20,3 C 12,9 km/h (3 Bft) 100,00 %
03.07.2016 16:48 20,8 C 56 % 1018,8 hPa 0,0 l/m 11,2 km/h (2 Bft) S 184 2 min 0,000 mm 3,2 UV-I 650 W/m 11,7 C 19,2 C 17,7 km/h (3 Bft) 100,00 %
03.07.2016 16:50 20,7 C 54 % 1018,8 hPa 0,0 l/m 9,7 km/h (2 Bft) S-SO 148 2 min 0,000 mm 3,1 UV-I 642 W/m 11,1 C 19,5 C 17,7 km/h (3 Bft) 100,00 %
03.07.2016 16:52 20,5 C 56 % 1018,8 hPa 0,0 l/m 7,3 km/h (2 Bft) W-SW 244 2 min 0,000 mm 3,0 UV-I 649 W/m 11,4 C 20,1 C 16,1 km/h (3 Bft) 100,00 %
03.07.2016 16:54 20,4 C 57 % 1018,8 hPa 0,0 l/m 6,1 km/h (2 Bft) W-SW 248 2 min 0,000 mm 2,3 UV-I 464 W/m 11,6 C 20,4 C 11,3 km/h (2 Bft) 97,87 %
03.07.2016 16:56 20,3 C 57 % 1018,9 hPa 0,0 l/m 9,1 km/h (2 Bft) W-NW 284 0 min 0,000 mm 2,0 UV-I 177 W/m 11,5 C 19,3 C 14,5 km/h (3 Bft) 100,00 %
03.07.2016 16:58 20,2 C 54 % 1018,8 hPa 0,0 l/m 4,3 km/h (1 Bft) W-SW 257 0 min 0,000 mm 1,9 UV-I 273 W/m 10,6 C 20,2 C 11,3 km/h (2 Bft) 100,00 %
03.07.2016 17:00 20,2 C 55 % 1018,9 hPa 0,0 l/m 5,3 km/h (1 Bft) W-NW 303 2 min 0,000 mm 2,3 UV-I 420 W/m 10,9 C 20,2 C 9,7 km/h (2 Bft) 100,00 %
03.07.2016 17:02 20,4 C 57 % 1018,7 hPa 0,0 l/m 2,8 km/h (1 Bft) N-NO 22 2 min 0,381 mm 2,2 UV-I 407 W/m 11,6 C 20,4 C 6,4 km/h (2 Bft) 98,00 %
03.07.2016 17:04 20,3 C 57 % 1018,7 hPa 0,0 l/m 6,8 km/h (2 Bft) NO 35 0 min 0,000 mm 2,1 UV-I 276 W/m 11,5 C 20,1 C 11,3 km/h (2 Bft) 95,74 %
03.07.2016 17:06 20,4 C 57 % 1018,7 hPa 0,0 l/m 4,9 km/h (1 Bft) SW 215 0 min 0,000 mm 2,6 UV-I 278 W/m 11,6 C 20,4 C 11,3 km/h (2 Bft) 95,74 %
03.07.2016 17:08 20,4 C 57 % 1018,6 hPa 0,0 l/m 4,7 km/h (1 Bft) SW 229 0 min 0,000 mm 2,2 UV-I 272 W/m 11,6 C 20,4 C 11,3 km/h (2 Bft) 93,62 %
03.07.2016 17:10 20,4 C 55 % 1018,8 hPa 0,0 l/m 3,5 km/h (1 Bft) S 190 0 min 0,000 mm 1,9 UV-I 279 W/m 11,1 C 20,4 C 8,0 km/h (2 Bft) 98,00 %
03.07.2016 17:12 20,5 C 60 % 1018,7 hPa 0,0 l/m 2,4 km/h (1 Bft) S 186 2 min 0,000 mm 2,4 UV-I 433 W/m 12,5 C 20,5 C 3,2 km/h (1 Bft) 97,87 %
03.07.2016 17:14 20,7 C 56 % 1018,7 hPa 0,0 l/m 8,8 km/h (2 Bft) SW 214 2 min 0,000 mm 1,9 UV-I 610 W/m 11,6 C 19,8 C 12,9 km/h (3 Bft) 95,74 %
03.07.2016 17:16 20,4 C 55 % 1018,7 hPa 0,0 l/m 5,6 km/h (1 Bft) S-SW 211 0 min 0,000 mm 1,4 UV-I 206 W/m 11,1 C 20,4 C 11,3 km/h (2 Bft) 97,87 %
03.07.2016 17:18 20,3 C 53 % 1018,7 hPa 0,0 l/m 6,2 km/h (2 Bft) W-SW 247 0 min 0,000 mm 1,3 UV-I 188 W/m 10,4 C 20,3 C 11,3 km/h (2 Bft) 95,74 %
03.07.2016 17:20 20,2 C 53 % 1018,7 hPa 0,0 l/m 5,4 km/h (1 Bft) S-SW 212 0 min 0,000 mm 1,2 UV-I 187 W/m 10,3 C 20,2 C 8,0 km/h (2 Bft) 94,29 %
03.07.2016 17:22 20,0 C 55 % 1018,6 hPa 0,0 l/m 2,9 km/h (1 Bft) W-SW 249 0 min 0,000 mm 1,1 UV-I 173 W/m 10,7 C 20,0 C 4,8 km/h (1 Bft) 91,49 %
03.07.2016 17:24 20,0 C 58 % 1018,6 hPa 0,0 l/m 0,1 km/h (0 Bft) W-SW 249 0 min 0,000 mm 1,0 UV-I 153 W/m 11,5 C 20,0 C 1,6 km/h (1 Bft) 95,74 %
03.07.2016 17:26 19,9 C 57 % 1018,7 hPa 0,0 l/m 1,1 km/h (1 Bft) W-SW 249 0 min 0,000 mm 0,9 UV-I 138 W/m 11,1 C 19,9 C 3,2 km/h (1 Bft) 94,00 %
03.07.2016 17:28 19,9 C 58 % 1018,6 hPa 0,0 l/m 1,9 km/h (1 Bft) W-NW 288 0 min 0,000 mm 0,7 UV-I 122 W/m 11,4 C 19,9 C 4,8 km/h (1 Bft) 98,00 %
03.07.2016 17:30 19,8 C 63 % 1018,7 hPa 0,0 l/m 1,8 km/h (1 Bft) NW 322 0 min 0,000 mm 0,6 UV-I 100 W/m 12,5 C 19,8 C 3,2 km/h (1 Bft) 96,00 %
03.07.2016 17:32 19,6 C 63 % 1018,7 hPa 0,0 l/m 1,2 km/h (1 Bft) NW 321 0 min 0,000 mm 0,5 UV-I 90 W/m 12,4 C 19,6 C 3,2 km/h (1 Bft) 95,74 %
03.07.2016 17:34 19,4 C 64 % 1018,7 hPa 0,0 l/m 0,4 km/h (0 Bft) NW 321 0 min 0,000 mm 0,5 UV-I 97 W/m 12,4 C 19,4 C 1,6 km/h (1 Bft) 97,87 %
03.07.2016 17:36 19,3 C 64 % 1018,7 hPa 0,0 l/m 0,8 km/h (0 Bft) NW 321 0 min 0,000 mm 0,5 UV-I 106 W/m 12,3 C 19,3 C 3,2 km/h (1 Bft) 97,87 %
03.07.2016 17:38 19,3 C 65 % 1018,7 hPa 0,0 l/m 1,2 km/h (1 Bft) NW 321 0 min 0,000 mm 0,5 UV-I 114 W/m 12,6 C 19,3 C 3,2 km/h (1 Bft) 100,00 %
03.07.2016 17:40 19,3 C 67 % 1018,7 hPa 0,0 l/m 1,2 km/h (1 Bft) NW 321 0 min 0,000 mm 0,7 UV-I 154 W/m 13,0 C 19,3 C 3,2 km/h (1 Bft) 97,92 %
03.07.2016 17:42 19,5 C 70 % 1018,7 hPa 0,0 l/m 0,4 km/h (0 Bft) NW 321 0 min 0,000 mm 1,0 UV-I 191 W/m 13,9 C 19,5 C 1,6 km/h (1 Bft) 100,00 %
03.07.2016 17:44 19,8 C 67 % 1018,7 hPa 0,0 l/m 0,7 km/h (0 Bft) NW 321 2 min 0,000 mm 1,1 UV-I 544 W/m 13,5 C 19,8 C 3,2 km/h (1 Bft) 100,00 %
03.07.2016 17:46 19,9 C 67 % 1018,7 hPa 0,0 l/m 1,5 km/h (1 Bft) NW 319 0 min 0,000 mm 1,2 UV-I 262 W/m 13,6 C 19,9 C 4,8 km/h (1 Bft) 100,00 %
03.07.2016 17:48 19,9 C 59 % 1018,7 hPa 0,0 l/m 2,2 km/h (1 Bft) N-NW 336 0 min 0,000 mm 1,4 UV-I 267 W/m 11,6 C 19,9 C 6,4 km/h (2 Bft) 97,87 %
03.07.2016 17:50 20,1 C 62 % 1018,7 hPa 0,0 l/m 1,0 km/h (0 Bft) N-NW 348 2 min 0,000 mm 1,5 UV-I 337 W/m 12,6 C 20,1 C 3,2 km/h (1 Bft) 100,00 %
03.07.2016 17:52 20,2 C 57 % 1018,7 hPa 0,0 l/m 0,6 km/h (0 Bft) N-NW 348 2 min 0,000 mm 1,4 UV-I 567 W/m 11,4 C 20,2 C 3,2 km/h (1 Bft) 100,00 %
03.07.2016 17:54 20,2 C 60 % 1018,7 hPa 0,0 l/m 1,9 km/h (1 Bft) N-NW 330 2 min 0,000 mm 1,3 UV-I 344 W/m 12,2 C 20,2 C 3,2 km/h (1 Bft) 100,00 %
03.07.2016 17:56 20,2 C 60 % 1018,7 hPa 0,0 l/m 2,1 km/h (1 Bft) N-NW 333 0 min 0,000 mm 1,1 UV-I 168 W/m 12,2 C 20,2 C 4,8 km/h (1 Bft) 100,00 %
03.07.2016 17:58 20,1 C 59 % 1018,7 hPa 0,0 l/m 3,7 km/h (1 Bft) N-NW 348 0 min 0,000 mm 1,1 UV-I 162 W/m 11,8 C 20,1 C 8,0 km/h (2 Bft) 100,00 %
03.07.2016 18:00 19,9 C 62 % 1018,7 hPa 0,0 l/m 2,8 km/h (1 Bft) N-NW 345 0 min 0,177 mm 1,1 UV-I 228 W/m 12,4 C 19,9 C 4,8 km/h (1 Bft) 100,00 %
03.07.2016 18:02 19,8 C 61 % 1018,7 hPa 0,0 l/m 2,7 km/h (1 Bft) NW 309 0 min 0,000 mm 1,1 UV-I 227 W/m 12,1 C 19,8 C 4,8 km/h (1 Bft) 100,00 %
03.07.2016 18:04 19,7 C 63 % 1018,7 hPa 0,0 l/m 3,3 km/h (1 Bft) N-NW 340 0 min 0,000 mm 1,0 UV-I 196 W/m 12,5 C 19,7 C 6,4 km/h (2 Bft) 100,00 %
03.07.2016 18:06 19,7 C 63 % 1018,7 hPa 0,0 l/m 1,2 km/h (1 Bft) NW 321 0 min 0,000 mm 1,0 UV-I 179 W/m 12,5 C 19,7 C 3,2 km/h (1 Bft) 100,00 %
03.07.2016 18:08 19,6 C 64 % 1018,6 hPa 0,0 l/m 2,0 km/h (1 Bft) NW 321 0 min 0,000 mm 0,9 UV-I 163 W/m 12,6 C 19,6 C 4,8 km/h (1 Bft) 100,00 %
03.07.2016 18:10 19,5 C 64 % 1018,6 hPa 0,0 l/m 1,5 km/h (1 Bft) N-NW 327 0 min 0,000 mm 0,8 UV-I 158 W/m 12,5 C 19,5 C 3,2 km/h (1 Bft) 95,74 %
03.07.2016 18:12 19,4 C 63 % 1018,7 hPa 0,0 l/m 1,3 km/h (1 Bft) N-NW 340 0 min 0,000 mm 0,8 UV-I 211 W/m 12,2 C 19,4 C 3,2 km/h (1 Bft) 98,00 %
03.07.2016 18:14 19,4 C 65 % 1018,6 hPa 0,0 l/m 2,7 km/h (1 Bft) N 350 2 min 0,000 mm 0,9 UV-I 329 W/m 12,6 C 19,4 C 4,8 km/h (1 Bft) 100,00 %
03.07.2016 18:16 19,4 C 63 % 1018,6 hPa 0,0 l/m 2,2 km/h (1 Bft) N-NW 341 2 min 0,000 mm 0,8 UV-I 273 W/m 12,2 C 19,4 C 4,8 km/h (1 Bft) 98,00 %
03.07.2016 18:18 19,4 C 64 % 1018,7 hPa 0,0 l/m 2,6 km/h (1 Bft) N 355 0 min 0,000 mm 0,7 UV-I 162 W/m 12,4 C 19,4 C 8,0 km/h (2 Bft) 97,87 %
03.07.2016 18:20 19,3 C 67 % 1018,6 hPa 0,0 l/m 2,3 km/h (1 Bft) N-NW 336 0 min 0,000 mm 0,6 UV-I 133 W/m 13,0 C 19,3 C 4,8 km/h (1 Bft) 100,00 %
03.07.2016 18:22 19,3 C 64 % 1018,7 hPa 0,0 l/m 1,4 km/h (1 Bft) N-NW 340 0 min 0,000 mm 0,5 UV-I 117 W/m 12,3 C 19,3 C 3,2 km/h (1 Bft) 100,00 %
03.07.2016 18:24 19,3 C 63 % 1018,7 hPa 0,0 l/m 2,3 km/h (1 Bft) NW 323 0 min 0,000 mm 0,1 UV-I 107 W/m 12,1 C 19,3 C 4,8 km/h (1 Bft) 97,87 %
03.07.2016 18:26 19,3 C 62 % 1018,8 hPa 0,0 l/m 2,8 km/h (1 Bft) NW 323 0 min 0,000 mm 0,0 UV-I 106 W/m 11,8 C 19,3 C 8,0 km/h (2 Bft) 97,87 %
03.07.2016 18:28 19,2 C 65 % 1018,8 hPa 0,0 l/m 3,7 km/h (1 Bft) N-NW 341 0 min 0,000 mm 0,0 UV-I 121 W/m 12,5 C 19,2 C 11,3 km/h (2 Bft) 100,00 %
03.07.2016 18:30 19,1 C 65 % 1018,8 hPa 0,0 l/m 1,3 km/h (1 Bft) N-NW 348 0 min 0,000 mm 0,5 UV-I 161 W/m 12,4 C 19,1 C 4,8 km/h (1 Bft) 100,00 %
03.07.2016 18:32 19,1 C 65 % 1018,8 hPa 0,0 l/m 1,9 km/h (1 Bft) N-NW 344 0 min 0,000 mm 0,6 UV-I 200 W/m 12,4 C 19,1 C 4,8 km/h (1 Bft) 97,87 %
03.07.2016 18:34 19,1 C 66 % 1018,8 hPa 0,0 l/m 2,0 km/h (1 Bft) NW 305 2 min 0,000 mm 0,7 UV-I 213 W/m 12,6 C 19,1 C 8,0 km/h (2 Bft) 100,00 %
03.07.2016 18:36 19,1 C 65 % 1018,8 hPa 0,0 l/m 3,0 km/h (1 Bft) N 355 0 min 0,000 mm 0,7 UV-I 201 W/m 12,4 C 19,1 C 6,4 km/h (2 Bft) 100,00 %
03.07.2016 18:38 19,3 C 65 % 1018,8 hPa 0,0 l/m 1,9 km/h (1 Bft) N-NW 328 2 min 0,000 mm 0,8 UV-I 368 W/m 12,6 C 19,3 C 4,8 km/h (1 Bft) 100,00 %
03.07.2016 18:40 19,6 C 65 % 1018,9 hPa 0,0 l/m 2,2 km/h (1 Bft) N-NW 329 2 min 0,000 mm 0,8 UV-I 409 W/m 12,8 C 19,6 C 4,8 km/h (1 Bft) 100,00 %
03.07.2016 18:42 19,7 C 63 % 1018,8 hPa 0,0 l/m 1,7 km/h (1 Bft) N-NW 334 2 min 0,000 mm 0,8 UV-I 352 W/m 12,5 C 19,7 C 4,8 km/h (1 Bft) 97,87 %
03.07.2016 18:44 19,8 C 63 % 1018,8 hPa 0,0 l/m 1,0 km/h (0 Bft) N-NW 329 2 min 0,000 mm 0,8 UV-I 319 W/m 12,5 C 19,8 C 3,2 km/h (1 Bft) 97,87 %
03.07.2016 18:46 19,9 C 60 % 1018,9 hPa 0,0 l/m 2,8 km/h (1 Bft) N-NW 337 2 min 0,000 mm 0,7 UV-I 300 W/m 11,9 C 19,9 C 6,4 km/h (2 Bft) 93,62 %
03.07.2016 18:48 19,9 C 61 % 1018,9 hPa 0,0 l/m 1,8 km/h (1 Bft) N-NW 332 2 min 0,000 mm 0,7 UV-I 276 W/m 12,2 C 19,9 C 3,2 km/h (1 Bft) 97,87 %
03.07.2016 18:50 19,9 C 62 % 1018,9 hPa 0,0 l/m 2,9 km/h (1 Bft) NO 42 2 min 0,000 mm 0,7 UV-I 277 W/m 12,4 C 19,9 C 6,4 km/h (2 Bft) 100,00 %
03.07.2016 18:52 20,0 C 62 % 1018,9 hPa 0,0 l/m 2,0 km/h (1 Bft) W-NW 292 2 min 0,000 mm 0,7 UV-I 274 W/m 12,5 C 20,0 C 6,4 km/h (2 Bft) 97,87 %
03.07.2016 18:54 20,0 C 60 % 1019,0 hPa 0,0 l/m 1,4 km/h (1 Bft) W-NW 292 2 min 0,000 mm 0,6 UV-I 269 W/m 12,0 C 20,0 C 3,2 km/h (1 Bft) 100,00 %
03.07.2016 18:56 20,1 C 62 % 1019,0 hPa 0,0 l/m 1,4 km/h (1 Bft) W-NW 292 2 min 0,000 mm 0,6 UV-I 262 W/m 12,6 C 20,1 C 3,2 km/h (1 Bft) 97,22 %
03.07.2016 18:58 20,2 C 60 % 1019,0 hPa 0,0 l/m 1,4 km/h (1 Bft) W-NW 292 2 min 0,000 mm 0,6 UV-I 258 W/m 12,2 C 20,2 C 3,2 km/h (1 Bft) 95,74 %
03.07.2016 19:00 20,3 C 59 % 1019,0 hPa 0,0 l/m 4,5 km/h (1 Bft) W 269 2 min 0,000 mm 0,6 UV-I 251 W/m 12,0 C 20,3 C 9,7 km/h (2 Bft) 100,00 %
03.07.2016 19:02 20,3 C 58 % 1019,0 hPa 0,0 l/m 6,6 km/h (2 Bft) W-SW 245 2 min 0,152 mm 0,5 UV-I 246 W/m 11,8 C 20,2 C 12,9 km/h (3 Bft) 97,92 %
03.07.2016 19:04 20,3 C 57 % 1019,1 hPa 0,0 l/m 3,6 km/h (1 Bft) W-NW 282 2 min 0,001 mm 0,5 UV-I 241 W/m 11,5 C 20,3 C 6,4 km/h (2 Bft) 97,87 %
03.07.2016 19:06 20,2 C 59 % 1019,1 hPa 0,0 l/m 1,8 km/h (1 Bft) W-NW 302 2 min 0,000 mm 0,5 UV-I 222 W/m 11,9 C 20,2 C 3,2 km/h (1 Bft) 97,87 %
03.07.2016 19:08 20,1 C 58 % 1019,1 hPa 0,0 l/m 1,4 km/h (1 Bft) SW 230 0 min 0,000 mm 0,4 UV-I 127 W/m 11,6 C 20,1 C 4,8 km/h (1 Bft) 96,00 %
03.07.2016 19:10 20,0 C 60 % 1019,1 hPa 0,0 l/m 3,1 km/h (1 Bft) W-NW 291 0 min 0,000 mm 0,0 UV-I 66 W/m 12,0 C 20,0 C 4,8 km/h (1 Bft) 98,00 %
03.07.2016 19:12 19,8 C 60 % 1019,1 hPa 0,0 l/m 2,9 km/h (1 Bft) W-SW 254 0 min 0,000 mm 0,0 UV-I 68 W/m 11,8 C 19,8 C 4,8 km/h (1 Bft) 97,92 %
03.07.2016 19:14 19,6 C 59 % 1019,1 hPa 0,0 l/m 3,6 km/h (1 Bft) W-NW 294 0 min 0,000 mm 0,0 UV-I 67 W/m 11,4 C 19,6 C 8,0 km/h (2 Bft) 97,14 %
03.07.2016 19:16 19,4 C 61 % 1019,1 hPa 0,0 l/m 3,2 km/h (1 Bft) NW 310 0 min 0,000 mm 0,0 UV-I 72 W/m 11,7 C 19,4 C 6,4 km/h (2 Bft) 95,74 %
03.07.2016 19:18 19,3 C 61 % 1019,1 hPa 0,0 l/m 2,6 km/h (1 Bft) NW 309 0 min 0,000 mm 0,0 UV-I 78 W/m 11,6 C 19,3 C 8,0 km/h (2 Bft) 95,74 %
03.07.2016 19:20 19,2 C 60 % 1019,1 hPa 0,0 l/m 2,3 km/h (1 Bft) W 279 0 min 0,000 mm 0,0 UV-I 83 W/m 11,2 C 19,2 C 4,8 km/h (1 Bft) 97,87 %
03.07.2016 19:22 19,1 C 61 % 1019,1 hPa 0,0 l/m 2,0 km/h (1 Bft) W 279 0 min 0,000 mm 0,0 UV-I 82 W/m 11,4 C 19,1 C 4,8 km/h (1 Bft) 95,83 %
03.07.2016 19:24 19,1 C 61 % 1019,1 hPa 0,0 l/m 3,7 km/h (1 Bft) W-SW 246 0 min 0,000 mm 0,0 UV-I 81 W/m 11,4 C 19,1 C 6,4 km/h (2 Bft) 98,00 %
03.07.2016 19:26 19,1 C 59 % 1019,0 hPa 0,0 l/m 5,6 km/h (1 Bft) W-NW 296 0 min 0,000 mm 0,0 UV-I 79 W/m 10,9 C 19,1 C 11,3 km/h (2 Bft) 95,74 %
03.07.2016 19:28 19,1 C 60 % 1019,1 hPa 0,0 l/m 7,2 km/h (2 Bft) W-SW 256 0 min 0,000 mm 0,0 UV-I 72 W/m 11,1 C 18,7 C 16,1 km/h (3 Bft) 96,00 %
03.07.2016 19:30 19,1 C 60 % 1019,1 hPa 0,0 l/m 5,6 km/h (1 Bft) W 267 0 min 0,000 mm 0,0 UV-I 66 W/m 11,1 C 19,1 C 14,5 km/h (3 Bft) 97,87 %
03.07.2016 19:32 19,1 C 61 % 1019,1 hPa 0,0 l/m 2,7 km/h (1 Bft) W-NW 282 0 min 0,000 mm 0,0 UV-I 61 W/m 11,4 C 19,1 C 4,8 km/h (1 Bft) 93,62 %
03.07.2016 19:34 19,0 C 59 % 1019,1 hPa 0,0 l/m 4,0 km/h (1 Bft) W-NW 293 0 min 0,000 mm 0,0 UV-I 55 W/m 10,8 C 19,0 C 9,7 km/h (2 Bft) 97,87 %
03.07.2016 19:36 19,0 C 60 % 1019,2 hPa 0,0 l/m 3,0 km/h (1 Bft) W-NW 296 0 min 0,000 mm 0,0 UV-I 51 W/m 11,1 C 19,0 C 6,4 km/h (2 Bft) 95,83 %
03.07.2016 19:38 18,9 C 62 % 1019,2 hPa 0,0 l/m 1,8 km/h (1 Bft) W-NW 296 0 min 0,000 mm 0,0 UV-I 48 W/m 11,5 C 18,9 C 3,2 km/h (1 Bft) 100,00 %
03.07.2016 19:40 18,8 C 62 % 1019,2 hPa 0,0 l/m 3,8 km/h (1 Bft) W-NW 286 0 min 0,000 mm 0,0 UV-I 46 W/m 11,4 C 18,8 C 11,3 km/h (2 Bft) 100,00 %
03.07.2016 19:42 18,8 C 60 % 1019,2 hPa 0,0 l/m 5,3 km/h (1 Bft) W 272 0 min 0,000 mm 0,0 UV-I 46 W/m 10,9 C 18,8 C 11,3 km/h (2 Bft) 100,00 %
03.07.2016 19:44 18,8 C 59 % 1019,2 hPa 0,0 l/m 4,2 km/h (1 Bft) W 276 0 min 0,000 mm 0,0 UV-I 47 W/m 10,6 C 18,8 C 11,3 km/h (2 Bft) 93,62 %
03.07.2016 19:46 18,8 C 61 % 1019,3 hPa 0,0 l/m 1,6 km/h (1 Bft) NW 311 0 min 0,000 mm 0,0 UV-I 48 W/m 11,1 C 18,8 C 3,2 km/h (1 Bft) 100,00 %
03.07.2016 19:48 18,8 C 63 % 1019,3 hPa 0,0 l/m 2,1 km/h (1 Bft) W-NW 301 0 min 0,000 mm 0,0 UV-I 45 W/m 11,6 C 18,8 C 3,2 km/h (1 Bft) 100,00 %
03.07.2016 19:50 18,8 C 62 % 1019,3 hPa 0,0 l/m 2,0 km/h (1 Bft) W-NW 295 0 min 0,000 mm 0,0 UV-I 42 W/m 11,4 C 18,8 C 4,8 km/h (1 Bft) 97,87 %
03.07.2016 19:52 18,7 C 62 % 1019,3 hPa 0,0 l/m 3,4 km/h (1 Bft) N-NW 330 0 min 0,000 mm 0,0 UV-I 40 W/m 11,3 C 18,7 C 11,3 km/h (2 Bft) 100,00 %
03.07.2016 19:54 18,7 C 61 % 1019,3 hPa 0,0 l/m 1,8 km/h (1 Bft) W-NW 290 0 min 0,000 mm 0,0 UV-I 38 W/m 11,0 C 18,7 C 4,8 km/h (1 Bft) 100,00 %
03.07.2016 19:56 18,7 C 61 % 1019,4 hPa 0,0 l/m 3,4 km/h (1 Bft) W-NW 298 0 min 0,000 mm 0,0 UV-I 34 W/m 11,0 C 18,7 C 9,7 km/h (2 Bft) 100,00 %
03.07.2016 19:58 18,7 C 61 % 1019,4 hPa 0,0 l/m 4,9 km/h (1 Bft) W 270 0 min 0,000 mm 0,0 UV-I 28 W/m 11,0 C 18,7 C 9,7 km/h (2 Bft) 100,00 %
03.07.2016 20:00 18,6 C 61 % 1019,4 hPa 0,0 l/m 3,6 km/h (1 Bft) N-NW 340 0 min 0,076 mm 0,0 UV-I 22 W/m 10,9 C 18,6 C 4,8 km/h (1 Bft) 97,87 %
03.07.2016 20:02 18,6 C 60 % 1019,4 hPa 0,0 l/m 2,0 km/h (1 Bft) W 263 0 min 0,000 mm 0,0 UV-I 21 W/m 10,7 C 18,6 C 4,8 km/h (1 Bft) 97,87 %
03.07.2016 20:04 18,6 C 60 % 1019,4 hPa 0,0 l/m 0,9 km/h (0 Bft) W 264 0 min 0,000 mm 0,0 UV-I 25 W/m 10,7 C 18,6 C 3,2 km/h (1 Bft) 100,00 %
03.07.2016 20:06 18,6 C 61 % 1019,5 hPa 0,0 l/m 2,5 km/h (1 Bft) W 267 0 min 0,000 mm 0,0 UV-I 28 W/m 10,9 C 18,6 C 6,4 km/h (2 Bft) 100,00 %
03.07.2016 20:08 18,5 C 60 % 1019,5 hPa 0,0 l/m 1,9 km/h (1 Bft) W 267 0 min 0,000 mm 0,0 UV-I 23 W/m 10,6 C 18,5 C 3,2 km/h (1 Bft) 97,87 %
03.07.2016 20:10 18,5 C 62 % 1019,5 hPa 0,0 l/m 1,0 km/h (0 Bft) W 267 0 min 0,000 mm 0,0 UV-I 18 W/m 11,1 C 18,5 C 4,8 km/h (1 Bft) 97,87 %
03.07.2016 20:12 18,4 C 61 % 1019,5 hPa 0,0 l/m 2,6 km/h (1 Bft) W 271 0 min 0,000 mm 0,0 UV-I 16 W/m 10,7 C 18,4 C 6,4 km/h (2 Bft) 100,00 %
03.07.2016 20:14 18,4 C 61 % 1019,5 hPa 0,0 l/m 0,9 km/h (0 Bft) W 271 0 min 0,000 mm 0,0 UV-I 18 W/m 10,7 C 18,4 C 3,2 km/h (1 Bft) 100,00 %
03.07.2016 20:16 18,4 C 62 % 1019,5 hPa 0,0 l/m 1,3 km/h (1 Bft) W 271 0 min 0,000 mm 0,0 UV-I 22 W/m 11,0 C 18,4 C 3,2 km/h (1 Bft) 97,87 %
03.07.2016 20:18 18,4 C 63 % 1019,5 hPa 0,0 l/m 2,4 km/h (1 Bft) W 269 0 min 0,000 mm 0,0 UV-I 24 W/m 11,2 C 18,4 C 6,4 km/h (2 Bft) 97,87 %
03.07.2016 20:20 18,3 C 62 % 1019,5 hPa 0,0 l/m 2,3 km/h (1 Bft) W 279 0 min 0,000 mm 0,0 UV-I 23 W/m 10,9 C 18,3 C 4,8 km/h (1 Bft) 100,00 %
03.07.2016 20:22 18,3 C 61 % 1019,5 hPa 0,0 l/m 3,4 km/h (1 Bft) W 269 0 min 0,000 mm 0,0 UV-I 19 W/m 10,6 C 18,3 C 6,4 km/h (2 Bft) 97,37 %
03.07.2016 20:24 18,3 C 62 % 1019,5 hPa 0,0 l/m 2,5 km/h (1 Bft) W 271 0 min 0,000 mm 0,0 UV-I 18 W/m 10,9 C 18,3 C 3,2 km/h (1 Bft) 100,00 %
03.07.2016 20:26 18,3 C 61 % 1019,5 hPa 0,0 l/m 3,7 km/h (1 Bft) W 273 0 min 0,000 mm 0,0 UV-I 20 W/m 10,6 C 18,3 C 6,4 km/h (2 Bft) 97,87 %
03.07.2016 20:28 18,3 C 63 % 1019,6 hPa 0,0 l/m 2,2 km/h (1 Bft) W 273 0 min 0,000 mm 0,0 UV-I 23 W/m 11,1 C 18,3 C 3,2 km/h (1 Bft) 100,00 %
03.07.2016 20:30 18,3 C 63 % 1019,5 hPa 0,0 l/m 3,7 km/h (1 Bft) W 281 0 min 0,000 mm 0,0 UV-I 21 W/m 11,1 C 18,3 C 4,8 km/h (1 Bft) 100,00 %
03.07.2016 20:32 18,3 C 62 % 1019,5 hPa 0,0 l/m 2,1 km/h (1 Bft) W 281 0 min 0,000 mm 0,0 UV-I 21 W/m 10,9 C 18,3 C 3,2 km/h (1 Bft) 100,00 %
03.07.2016 20:34 18,3 C 63 % 1019,5 hPa 0,0 l/m 1,9 km/h (1 Bft) W 276 0 min 0,000 mm 0,0 UV-I 19 W/m 11,1 C 18,3 C 6,4 km/h (2 Bft) 100,00 %
03.07.2016 20:36 18,2 C 64 % 1019,5 hPa 0,0 l/m 0,1 km/h (0 Bft) W 276 0 min 0,000 mm 0,0 UV-I 16 W/m 11,3 C 18,2 C 1,6 km/h (1 Bft) 100,00 %
03.07.2016 20:38 18,2 C 65 % 1019,6 hPa 0,0 l/m 1,1 km/h (1 Bft) W 276 0 min 0,000 mm 0,0 UV-I 12 W/m 11,5 C 18,2 C 3,2 km/h (1 Bft) 98,00 %
03.07.2016 20:40 18,1 C 66 % 1019,6 hPa 0,0 l/m 0,9 km/h (0 Bft) W 276 0 min 0,000 mm 0,0 UV-I 11 W/m 11,6 C 18,1 C 1,6 km/h (1 Bft) 97,87 %
03.07.2016 20:42 18,0 C 68 % 1019,6 hPa 0,0 l/m 1,3 km/h (1 Bft) W 276 0 min 0,000 mm 0,0 UV-I 12 W/m 12,0 C 18,0 C 3,2 km/h (1 Bft) 100,00 %
03.07.2016 20:44 17,9 C 65 % 1019,6 hPa 0,0 l/m 1,7 km/h (1 Bft) W 265 0 min 0,000 mm 0,0 UV-I 12 W/m 11,2 C 17,9 C 6,4 km/h (2 Bft) 100,00 %
03.07.2016 20:46 17,9 C 67 % 1019,7 hPa 0,0 l/m 0,0 km/h (0 Bft) W 265 0 min 0,000 mm 0,0 UV-I 12 W/m 11,7 C 17,9 C 1,6 km/h (1 Bft) 100,00 %
03.07.2016 20:48 17,8 C 69 % 1019,6 hPa 0,0 l/m 1,6 km/h (1 Bft) N-NW 346 0 min 0,000 mm 0,0 UV-I 12 W/m 12,0 C 17,8 C 8,0 km/h (2 Bft) 97,87 %
03.07.2016 20:50 17,8 C 67 % 1019,7 hPa 0,0 l/m 1,6 km/h (1 Bft) W-NW 298 0 min 0,000 mm 0,0 UV-I 12 W/m 11,6 C 17,8 C 4,8 km/h (1 Bft) 100,00 %
03.07.2016 20:52 17,8 C 66 % 1019,7 hPa 0,0 l/m 2,9 km/h (1 Bft) W-NW 288 2 min 0,000 mm 0,0 UV-I 12 W/m 11,4 C 17,8 C 6,4 km/h (2 Bft) 100,00 %
03.07.2016 20:54 17,8 C 66 % 1019,7 hPa 0,0 l/m 1,7 km/h (1 Bft) W 271 2 min 0,000 mm 0,0 UV-I 14 W/m 11,4 C 17,8 C 4,8 km/h (1 Bft) 95,74 %
03.07.2016 20:56 17,8 C 67 % 1019,7 hPa 0,0 l/m 1,9 km/h (1 Bft) W 271 0 min 0,000 mm 0,0 UV-I 12 W/m 11,6 C 17,8 C 4,8 km/h (1 Bft) 97,22 %
03.07.2016 20:58 17,7 C 68 % 1019,8 hPa 0,0 l/m 0,6 km/h (0 Bft) W 271 0 min 0,000 mm 0,0 UV-I 10 W/m 11,7 C 17,7 C 1,6 km/h (1 Bft) 97,87 %
03.07.2016 21:00 17,7 C 68 % 1019,8 hPa 0,0 l/m 0,8 km/h (0 Bft) W 271 0 min 0,000 mm 0,0 UV-I 7 W/m 11,7 C 17,7 C 3,2 km/h (1 Bft) 100,00 %
03.07.2016 21:02 17,6 C 71 % 1019,9 hPa 0,0 l/m 2,6 km/h (1 Bft) W 271 0 min 0,025 mm 0,0 UV-I 4 W/m 12,3 C 17,6 C 6,4 km/h (2 Bft) 97,87 %
03.07.2016 21:04 17,6 C 70 % 1019,9 hPa 0,0 l/m 1,3 km/h (1 Bft) W 271 0 min 0,000 mm 0,0 UV-I 0 W/m 12,1 C 17,6 C 3,2 km/h (1 Bft) 95,74 %
03.07.2016 21:06 17,5 C 70 % 1019,9 hPa 0,0 l/m 0,5 km/h (0 Bft) W-NW 284 0 min 0,000 mm 0,0 UV-I 0 W/m 12,0 C 17,5 C 3,2 km/h (1 Bft) 97,87 %
03.07.2016 21:08 17,5 C 69 % 1020,0 hPa 0,0 l/m 2,6 km/h (1 Bft) W-NW 282 0 min 0,000 mm 0,0 UV-I 0 W/m 11,7 C 17,5 C 6,4 km/h (2 Bft) 95,74 %
03.07.2016 21:10 17,6 C 68 % 1020,0 hPa 0,0 l/m 0,7 km/h (0 Bft) W-NW 282 0 min 0,000 mm 0,0 UV-I 0 W/m 11,6 C 17,6 C 3,2 km/h (1 Bft) 97,87 %
03.07.2016 21:12 17,6 C 69 % 1020,0 hPa 0,0 l/m 1,5 km/h (1 Bft) W-NW 282 0 min 0,000 mm 0,0 UV-I 0 W/m 11,8 C 17,6 C 3,2 km/h (1 Bft) 93,62 %
03.07.2016 21:14 17,6 C 68 % 1020,0 hPa 0,0 l/m 1,0 km/h (0 Bft) NW 307 0 min 0,000 mm 0,0 UV-I 0 W/m 11,6 C 17,6 C 3,2 km/h (1 Bft) 95,74 %
03.07.2016 21:16 17,6 C 68 % 1020,1 hPa 0,0 l/m 2,6 km/h (1 Bft) W 259 0 min 0,000 mm 0,0 UV-I 0 W/m 11,6 C 17,6 C 4,8 km/h (1 Bft) 97,87 %
03.07.2016 21:18 17,6 C 69 % 1020,1 hPa 0,0 l/m 2,6 km/h (1 Bft) W-NW 291 0 min 0,000 mm 0,0 UV-I 0 W/m 11,8 C 17,6 C 9,7 km/h (2 Bft) 97,87 %
03.07.2016 21:20 17,6 C 69 % 1020,2 hPa 0,0 l/m 1,6 km/h (1 Bft) W 281 0 min 0,000 mm 0,0 UV-I 0 W/m 11,8 C 17,6 C 4,8 km/h (1 Bft) 97,87 %
03.07.2016 21:22 17,5 C 71 % 1020,2 hPa 0,0 l/m 1,8 km/h (1 Bft) NW 310 0 min 0,000 mm 0,0 UV-I 0 W/m 12,2 C 17,5 C 6,4 km/h (2 Bft) 95,74 %
03.07.2016 21:24 17,4 C 71 % 1020,3 hPa 0,0 l/m 0,9 km/h (0 Bft) W-NW 303 0 min 0,000 mm 0,0 UV-I 0 W/m 12,1 C 17,4 C 4,8 km/h (1 Bft) 97,87 %
03.07.2016 21:26 17,4 C 71 % 1020,4 hPa 0,0 l/m 1,9 km/h (1 Bft) W-NW 286 0 min 0,000 mm 0,0 UV-I 0 W/m 12,1 C 17,4 C 4,8 km/h (1 Bft) 97,87 %
03.07.2016 21:28 17,4 C 71 % 1020,4 hPa 0,0 l/m 0,7 km/h (0 Bft) W-NW 286 0 min 0,000 mm 0,0 UV-I 0 W/m 12,1 C 17,4 C 3,2 km/h (1 Bft) 95,83 %
03.07.2016 21:30 17,3 C 71 % 1020,4 hPa 0,0 l/m 1,4 km/h (1 Bft) W 275 0 min 0,000 mm 0,0 UV-I 0 W/m 12,0 C 17,3 C 4,8 km/h (1 Bft) 97,87 %
03.07.2016 21:32 17,3 C 72 % 1020,5 hPa 0,0 l/m 0,5 km/h (0 Bft) W 275 0 min 0,000 mm 0,0 UV-I 0 W/m 12,2 C 17,3 C 3,2 km/h (1 Bft) 97,87 %
03.07.2016 21:34 17,3 C 70 % 1020,5 hPa 0,0 l/m 2,8 km/h (1 Bft) W 276 0 min 0,000 mm 0,0 UV-I 0 W/m 11,8 C 17,3 C 6,4 km/h (2 Bft) 95,74 %
03.07.2016 21:36 17,3 C 70 % 1020,6 hPa 0,0 l/m 1,0 km/h (0 Bft) N-NW 328 0 min 0,000 mm 0,0 UV-I 0 W/m 11,8 C 17,3 C 3,2 km/h (1 Bft) 100,00 %
03.07.2016 21:38 17,3 C 69 % 1020,6 hPa 0,0 l/m 1,4 km/h (1 Bft) W-NW 296 0 min 0,000 mm 0,0 UV-I 0 W/m 11,6 C 17,3 C 4,8 km/h (1 Bft) 100,00 %
03.07.2016 21:40 17,3 C 69 % 1020,7 hPa 0,0 l/m 1,6 km/h (1 Bft) W-NW 296 0 min 0,000 mm 0,0 UV-I 0 W/m 11,6 C 17,3 C 3,2 km/h (1 Bft) 100,00 %
03.07.2016 21:42 17,3 C 69 % 1020,7 hPa 0,0 l/m 4,0 km/h (1 Bft) W-NW 298 0 min 0,000 mm 0,0 UV-I 0 W/m 11,6 C 17,3 C 11,3 km/h (2 Bft) 97,87 %
03.07.2016 21:44 17,3 C 68 % 1020,7 hPa 0,0 l/m 2,2 km/h (1 Bft) W-NW 289 0 min 0,000 mm 0,0 UV-I 0 W/m 11,3 C 17,3 C 6,4 km/h (2 Bft) 100,00 %
03.07.2016 21:46 17,3 C 69 % 1020,7 hPa 0,0 l/m 2,5 km/h (1 Bft) W-NW 296 0 min 0,000 mm 0,0 UV-I 0 W/m 11,6 C 17,3 C 6,4 km/h (2 Bft) 96,00 %
03.07.2016 21:48 17,3 C 68 % 1020,7 hPa 0,0 l/m 0,7 km/h (0 Bft) W-NW 296 0 min 0,000 mm 0,0 UV-I 0 W/m 11,3 C 17,3 C 3,2 km/h (1 Bft) 100,00 %
03.07.2016 21:50 17,2 C 69 % 1020,8 hPa 0,0 l/m 1,0 km/h (0 Bft) W-NW 296 0 min 0,000 mm 0,0 UV-I 0 W/m 11,5 C 17,2 C 3,2 km/h (1 Bft) 100,00 %
03.07.2016 21:52 17,2 C 69 % 1020,8 hPa 0,0 l/m 0,6 km/h (0 Bft) W-NW 296 0 min 0,000 mm 0,0 UV-I 0 W/m 11,5 C 17,2 C 3,2 km/h (1 Bft) 100,00 %
03.07.2016 21:54 17,2 C 68 % 1020,8 hPa 0,0 l/m 1,5 km/h (1 Bft) W-NW 296 0 min 0,000 mm 0,0 UV-I 0 W/m 11,2 C 17,2 C 3,2 km/h (1 Bft) 95,74 %
03.07.2016 21:56 17,2 C 69 % 1020,8 hPa 0,0 l/m 1,1 km/h (1 Bft) W-NW 296 0 min 0,000 mm 0,0 UV-I 0 W/m 11,5 C 17,2 C 1,6 km/h (1 Bft) 100,00 %
03.07.2016 21:58 17,2 C 69 % 1020,8 hPa 0,0 l/m 0,7 km/h (0 Bft) W-NW 290 0 min 0,000 mm 0,0 UV-I 0 W/m 11,5 C 17,2 C 4,8 km/h (1 Bft) 98,00 %
03.07.2016 22:00 17,2 C 69 % 1020,8 hPa 0,0 l/m 1,3 km/h (1 Bft) NW 313 0 min 0,000 mm 0,0 UV-I 0 W/m 11,5 C 17,2 C 4,8 km/h (1 Bft) 97,87 %
03.07.2016 22:02 17,2 C 70 % 1020,8 hPa 0,0 l/m 2,2 km/h (1 Bft) W-NW 289 0 min 0,026 mm 0,0 UV-I 0 W/m 11,7 C 17,2 C 6,4 km/h (2 Bft) 98,00 %
03.07.2016 22:04 17,2 C 69 % 1020,8 hPa 0,0 l/m 2,5 km/h (1 Bft) W-NW 289 0 min 0,000 mm 0,0 UV-I 0 W/m 11,5 C 17,2 C 4,8 km/h (1 Bft) 97,87 %
03.07.2016 22:06 17,2 C 68 % 1020,8 hPa 0,0 l/m 2,6 km/h (1 Bft) NW 311 0 min 0,000 mm 0,0 UV-I 0 W/m 11,2 C 17,2 C 4,8 km/h (1 Bft) 100,00 %
03.07.2016 22:08 17,2 C 69 % 1020,9 hPa 0,0 l/m 1,7 km/h (1 Bft) NW 306 0 min 0,000 mm 0,0 UV-I 0 W/m 11,5 C 17,2 C 3,2 km/h (1 Bft) 98,00 %
03.07.2016 22:10 17,2 C 68 % 1020,9 hPa 0,0 l/m 2,6 km/h (1 Bft) W-NW 302 0 min 0,000 mm 0,0 UV-I 0 W/m 11,2 C 17,2 C 4,8 km/h (1 Bft) 97,87 %
03.07.2016 22:12 17,1 C 71 % 1021,0 hPa 0,0 l/m 0,5 km/h (0 Bft) W-NW 302 0 min 0,000 mm 0,0 UV-I 0 W/m 11,8 C 17,1 C 1,6 km/h (1 Bft) 100,00 %
03.07.2016 22:14 17,1 C 70 % 1021,0 hPa 0,0 l/m 1,4 km/h (1 Bft) W-NW 302 0 min 0,000 mm 0,0 UV-I 0 W/m 11,6 C 17,1 C 3,2 km/h (1 Bft) 97,87 %
03.07.2016 22:16 16,9 C 71 % 1021,0 hPa 0,0 l/m 1,9 km/h (1 Bft) W-NW 302 0 min 0,000 mm 0,0 UV-I 0 W/m 11,6 C 16,9 C 3,2 km/h (1 Bft) 98,00 %
03.07.2016 22:18 16,9 C 71 % 1021,0 hPa 0,0 l/m 1,9 km/h (1 Bft) W-NW 302 0 min 0,000 mm 0,0 UV-I 0 W/m 11,6 C 16,9 C 4,8 km/h (1 Bft) 100,00 %
03.07.2016 22:20 16,9 C 69 % 1021,0 hPa 0,0 l/m 1,9 km/h (1 Bft) W-NW 302 0 min 0,000 mm 0,0 UV-I 0 W/m 11,2 C 16,9 C 3,2 km/h (1 Bft) 100,00 %
03.07.2016 22:22 16,9 C 69 % 1021,0 hPa 0,0 l/m 2,2 km/h (1 Bft) W-NW 300 0 min 0,000 mm 0,0 UV-I 0 W/m 11,2 C 16,9 C 4,8 km/h (1 Bft) 100,00 %
03.07.2016 22:24 17,0 C 68 % 1021,0 hPa 0,0 l/m 1,3 km/h (1 Bft) W-NW 300 0 min 0,000 mm 0,0 UV-I 0 W/m 11,0 C 17,0 C 3,2 km/h (1 Bft) 97,87 %
03.07.2016 22:26 17,1 C 68 % 1021,0 hPa 0,0 l/m 3,0 km/h (1 Bft) W-NW 294 0 min 0,000 mm 0,0 UV-I 0 W/m 11,1 C 17,1 C 4,8 km/h (1 Bft) 100,00 %
03.07.2016 22:28 17,1 C 69 % 1021,0 hPa 0,0 l/m 3,1 km/h (1 Bft) W-SW 257 0 min 0,000 mm 0,0 UV-I 0 W/m 11,4 C 17,1 C 6,4 km/h (2 Bft) 100,00 %
03.07.2016 22:30 17,1 C 68 % 1021,0 hPa 0,0 l/m 4,5 km/h (1 Bft) W-SW 254 0 min 0,000 mm 0,0 UV-I 0 W/m 11,1 C 17,1 C 8,0 km/h (2 Bft) 97,87 %
03.07.2016 22:32 17,1 C 69 % 1021,0 hPa 0,0 l/m 3,1 km/h (1 Bft) W 262 0 min 0,000 mm 0,0 UV-I 0 W/m 11,4 C 17,1 C 6,4 km/h (2 Bft) 97,37 %
03.07.2016 22:34 17,0 C 69 % 1021,1 hPa 0,0 l/m 3,8 km/h (1 Bft) W 273 0 min 0,000 mm 0,0 UV-I 0 W/m 11,3 C 17,0 C 4,8 km/h (1 Bft) 98,00 %
03.07.2016 22:36 17,0 C 69 % 1021,1 hPa 0,0 l/m 4,1 km/h (1 Bft) W 267 0 min 0,000 mm 0,0 UV-I 0 W/m 11,3 C 17,0 C 4,8 km/h (1 Bft) 100,00 %
03.07.2016 22:38 16,9 C 69 % 1021,1 hPa 0,0 l/m 3,4 km/h (1 Bft) W 264 0 min 0,000 mm 0,0 UV-I 0 W/m 11,2 C 16,9 C 4,8 km/h (1 Bft) 100,00 %
03.07.2016 22:40 16,9 C 69 % 1021,1 hPa 0,0 l/m 4,3 km/h (1 Bft) W 260 0 min 0,000 mm 0,0 UV-I 0 W/m 11,2 C 16,9 C 6,4 km/h (2 Bft) 100,00 %
03.07.2016 22:42 16,9 C 69 % 1021,1 hPa 0,0 l/m 4,4 km/h (1 Bft) W-SW 257 0 min 0,000 mm 0,0 UV-I 0 W/m 11,2 C 16,9 C 6,4 km/h (2 Bft) 100,00 %
03.07.2016 22:44 16,9 C 69 % 1021,1 hPa 0,0 l/m 3,6 km/h (1 Bft) W-SW 254 0 min 0,000 mm 0,0 UV-I 0 W/m 11,2 C 16,9 C 6,4 km/h (2 Bft) 100,00 %
03.07.2016 22:46 16,9 C 70 % 1021,1 hPa 0,0 l/m 4,7 km/h (1 Bft) W 259 0 min 0,000 mm 0,0 UV-I 0 W/m 11,4 C 16,9 C 6,4 km/h (2 Bft) 100,00 %
03.07.2016 22:48 16,8 C 69 % 1021,1 hPa 0,0 l/m 4,3 km/h (1 Bft) W 259 0 min 0,000 mm 0,0 UV-I 0 W/m 11,1 C 16,8 C 6,4 km/h (2 Bft) 100,00 %
03.07.2016 22:50 16,8 C 70 % 1021,1 hPa 0,0 l/m 4,0 km/h (1 Bft) W-SW 258 0 min 0,000 mm 0,0 UV-I 0 W/m 11,3 C 16,8 C 6,4 km/h (2 Bft) 100,00 %
03.07.2016 22:52 16,8 C 70 % 1021,1 hPa 0,0 l/m 3,9 km/h (1 Bft) W-SW 257 0 min 0,000 mm 0,0 UV-I 0 W/m 11,3 C 16,8 C 6,4 km/h (2 Bft) 97,22 %
03.07.2016 22:54 16,8 C 70 % 1021,1 hPa 0,0 l/m 5,8 km/h (2 Bft) W-SW 245 0 min 0,000 mm 0,0 UV-I 0 W/m 11,3 C 16,8 C 9,7 km/h (2 Bft) 98,00 %
03.07.2016 22:56 16,8 C 71 % 1021,1 hPa 0,0 l/m 4,9 km/h (1 Bft) W-SW 238 0 min 0,000 mm 0,0 UV-I 0 W/m 11,5 C 16,8 C 8,0 km/h (2 Bft) 100,00 %
03.07.2016 22:58 16,8 C 70 % 1021,1 hPa 0,0 l/m 3,9 km/h (1 Bft) W-SW 245 0 min 0,000 mm 0,0 UV-I 0 W/m 11,3 C 16,8 C 4,8 km/h (1 Bft) 100,00 %
03.07.2016 23:00 16,7 C 71 % 1021,1 hPa 0,0 l/m 3,8 km/h (1 Bft) W-SW 245 0 min 0,025 mm 0,0 UV-I 0 W/m 11,4 C 16,7 C 4,8 km/h (1 Bft) 100,00 %
03.07.2016 23:02 16,7 C 72 % 1021,1 hPa 0,0 l/m 3,9 km/h (1 Bft) W-SW 245 0 min 0,000 mm 0,0 UV-I 0 W/m 11,6 C 16,7 C 6,4 km/h (2 Bft) 100,00 %
03.07.2016 23:04 16,6 C 73 % 1021,1 hPa 0,0 l/m 3,6 km/h (1 Bft) W-SW 237 0 min 0,000 mm 0,0 UV-I 0 W/m 11,7 C 16,6 C 4,8 km/h (1 Bft) 94,34 %
03.07.2016 23:06 16,6 C 73 % 1021,1 hPa 0,0 l/m 4,6 km/h (1 Bft) SW 235 0 min 0,000 mm 0,0 UV-I 0 W/m 11,7 C 16,6 C 6,4 km/h (2 Bft) 95,74 %
03.07.2016 23:08 16,6 C 73 % 1021,1 hPa 0,0 l/m 3,9 km/h (1 Bft) SW 226 0 min 0,000 mm 0,0 UV-I 0 W/m 11,7 C 16,6 C 6,4 km/h (2 Bft) 95,74 %
03.07.2016 23:10 16,5 C 72 % 1021,2 hPa 0,0 l/m 4,3 km/h (1 Bft) SW 234 0 min 0,000 mm 0,0 UV-I 0 W/m 11,4 C 16,5 C 6,4 km/h (2 Bft) 95,74 %
03.07.2016 23:12 16,5 C 72 % 1021,2 hPa 0,0 l/m 4,8 km/h (1 Bft) SW 222 0 min 0,000 mm 0,0 UV-I 0 W/m 11,4 C 16,5 C 8,0 km/h (2 Bft) 97,87 %
03.07.2016 23:14 16,5 C 73 % 1021,2 hPa 0,0 l/m 4,4 km/h (1 Bft) SW 217 0 min 0,000 mm 0,0 UV-I 0 W/m 11,6 C 16,5 C 6,4 km/h (2 Bft) 97,87 %
03.07.2016 23:16 16,5 C 72 % 1021,2 hPa 0,0 l/m 4,9 km/h (1 Bft) SW 225 0 min 0,000 mm 0,0 UV-I 0 W/m 11,4 C 16,5 C 6,4 km/h (2 Bft) 97,87 %
03.07.2016 23:18 16,4 C 73 % 1021,3 hPa 0,0 l/m 5,2 km/h (1 Bft) W-SW 238 0 min 0,000 mm 0,0 UV-I 0 W/m 11,5 C 16,4 C 8,0 km/h (2 Bft) 95,74 %
03.07.2016 23:20 16,4 C 72 % 1021,2 hPa 0,0 l/m 6,4 km/h (2 Bft) SW 229 0 min 0,000 mm 0,0 UV-I 0 W/m 11,3 C 16,4 C 8,0 km/h (2 Bft) 93,62 %
03.07.2016 23:22 16,5 C 72 % 1021,3 hPa 0,0 l/m 5,0 km/h (1 Bft) SW 216 0 min 0,000 mm 0,0 UV-I 0 W/m 11,4 C 16,5 C 8,0 km/h (2 Bft) 95,74 %
03.07.2016 23:24 16,4 C 72 % 1021,4 hPa 0,0 l/m 5,5 km/h (1 Bft) SW 235 0 min 0,000 mm 0,0 UV-I 0 W/m 11,3 C 16,4 C 8,0 km/h (2 Bft) 97,44 %
03.07.2016 23:26 16,4 C 73 % 1021,3 hPa 0,0 l/m 5,2 km/h (1 Bft) SW 232 0 min 0,000 mm 0,0 UV-I 0 W/m 11,5 C 16,4 C 8,0 km/h (2 Bft) 97,87 %
03.07.2016 23:28 16,4 C 73 % 1021,4 hPa 0,0 l/m 5,0 km/h (1 Bft) SW 236 0 min 0,000 mm 0,0 UV-I 0 W/m 11,5 C 16,4 C 8,0 km/h (2 Bft) 97,87 %
03.07.2016 23:30 16,4 C 73 % 1021,4 hPa 0,0 l/m 5,1 km/h (1 Bft) SW 229 0 min 0,000 mm 0,0 UV-I 0 W/m 11,5 C 16,4 C 8,0 km/h (2 Bft) 93,62 %
03.07.2016 23:32 16,4 C 73 % 1021,4 hPa 0,0 l/m 4,1 km/h (1 Bft) SW 234 0 min 0,000 mm 0,0 UV-I 0 W/m 11,5 C 16,4 C 6,4 km/h (2 Bft) 95,83 %
03.07.2016 23:34 16,3 C 73 % 1021,4 hPa 0,0 l/m 4,1 km/h (1 Bft) SW 222 0 min 0,000 mm 0,0 UV-I 0 W/m 11,4 C 16,3 C 8,0 km/h (2 Bft) 97,87 %
03.07.2016 23:36 16,3 C 73 % 1021,4 hPa 0,0 l/m 5,2 km/h (1 Bft) S-SW 204 0 min 0,000 mm 0,0 UV-I 0 W/m 11,4 C 16,3 C 8,0 km/h (2 Bft) 97,87 %
03.07.2016 23:38 16,3 C 74 % 1021,5 hPa 0,0 l/m 4,7 km/h (1 Bft) SW 230 0 min 0,000 mm 0,0 UV-I 0 W/m 11,7 C 16,3 C 6,4 km/h (2 Bft) 96,00 %
03.07.2016 23:40 16,3 C 74 % 1021,4 hPa 0,0 l/m 4,2 km/h (1 Bft) S-SW 210 0 min 0,000 mm 0,0 UV-I 0 W/m 11,7 C 16,3 C 8,0 km/h (2 Bft) 98,00 %
03.07.2016 23:42 16,3 C 74 % 1021,5 hPa 0,0 l/m 3,4 km/h (1 Bft) SW 221 0 min 0,000 mm 0,0 UV-I 0 W/m 11,7 C 16,3 C 4,8 km/h (1 Bft) 97,87 %
03.07.2016 23:44 16,2 C 75 % 1021,5 hPa 0,0 l/m 3,9 km/h (1 Bft) SW 226 0 min 0,000 mm 0,0 UV-I 0 W/m 11,8 C 16,2 C 6,4 km/h (2 Bft) 100,00 %
03.07.2016 23:46 16,2 C 75 % 1021,5 hPa 0,0 l/m 4,3 km/h (1 Bft) SW 225 0 min 0,000 mm 0,0 UV-I 0 W/m 11,8 C 16,2 C 6,4 km/h (2 Bft) 95,74 %
03.07.2016 23:48 16,2 C 75 % 1021,5 hPa 0,0 l/m 3,6 km/h (1 Bft) SW 222 0 min 0,000 mm 0,0 UV-I 0 W/m 11,8 C 16,2 C 6,4 km/h (2 Bft) 97,37 %
03.07.2016 23:50 16,1 C 76 % 1021,6 hPa 0,0 l/m 3,9 km/h (1 Bft) SW 235 0 min 0,000 mm 0,0 UV-I 0 W/m 11,9 C 16,1 C 6,4 km/h (2 Bft) 98,00 %
03.07.2016 23:52 16,1 C 76 % 1021,6 hPa 0,0 l/m 4,4 km/h (1 Bft) SW 232 0 min 0,000 mm 0,0 UV-I 0 W/m 11,9 C 16,1 C 8,0 km/h (2 Bft) 100,00 %
03.07.2016 23:54 16,1 C 76 % 1021,6 hPa 0,0 l/m 5,2 km/h (1 Bft) W-SW 238 0 min 0,000 mm 0,0 UV-I 0 W/m 11,9 C 16,1 C 8,0 km/h (2 Bft) 100,00 %
03.07.2016 23:56 16,1 C 77 % 1021,6 hPa 0,0 l/m 4,7 km/h (1 Bft) SW 229 0 min 0,000 mm 0,0 UV-I 0 W/m 12,1 C 16,1 C 6,4 km/h (2 Bft) 97,87 %
03.07.2016 23:58 16,0 C 77 % 1021,6 hPa 0,0 l/m 4,5 km/h (1 Bft) W-SW 238 0 min 0,000 mm 0,0 UV-I 0 W/m 12,0 C 16,0 C 6,4 km/h (2 Bft) 100,00 %
_ Min-Zeit 05:02 17:18 00:04 - 20:46 - - - - - - 15:32 03:44 13:52 01:46
Minimum _ 12,6 C 53 % 1017,8 hPa - 0,0 km/h (0 Bft) - - - - - - 10,2 C 8,4 C 1,6 km/h (1 Bft) 91,49 %
_ Max-Zeit 16:46 01:30 23:50 00:26 03:44 - - 08:00 16:00 15:12 15:32 00:08 17:12 00:12 00:00
Maximum _ 21,0 C 95 % 1021,6 hPa 0,2 l/m 15,8 km/h
W-SW (3 Bft)
- - 2 min 0,381 mm 6,1 UV-I 949 W/m 14,0 C 20,5 C 24,1 km/h
W-SW (4 Bft)
100,00 %
Durchschnitt _ 16,5 C 77 % 1019,6 hPa #5,8 l/m 6,6 km/h (2 Bft) SW - #5:08 h #2,870 mm 2,4 UV-I 279 W/m 12,2 C 15,7 C 11,5 km/h (2 Bft) 98,29 %